IBE6848 SACO-LEMD
Flight info
| Callsign | IBE6848 |
|---|---|
| Flight time | N/A |
| Altitude | 31000 |
| Route | TREJO1C TREJO UL531 SIS UZ124 ARPAS UM529 VAS UM403 KABEG/N0489F330 UM403 SIREM DCT EPDEP UZ60 DOTKU DCT ENVAN UZ18 ARTIG UN866 MABMU/N0486F350 UN866 DEKON/N0487F340 UN866 NELTO/N0480F360 UN866 AMDOL/N0479F350 UN866 TENPA N866 YORGI/N0469F370 N866 APASO N871 URQUI/N0469F360 N871 GDV N858 VASTO UN858 AKUDA/N0417F240 UN858 PESAS DCT OSLEP N858 OXACA M30 HIJ Z230 SOTUK |
| Aircraft | A346/H-SDE2E3FGHIJ3J4J5M1RWXY/LB1D1 |
Departure
| Time | 2026-05-04 00:06 |
|---|---|
| Airport | Ingeniero Aeronáutico Ambrosio L.V. Taravella International Airport (SACO) |
Arrival
| Time | N/A |
|---|---|
| Airport | Adolfo Suárez Madrid–Barajas Airport (LEMD) |
| Time | Latitude | Longitude | Altitude | Speed | Heading |
|---|---|---|---|---|---|
| 2026-05-03 23:25 | -31.31542 | -64.21156 | 1621 ft | 0 kts | 269° |
| 2026-05-03 23:54 | -31.31542 | -64.21139 | 1622 ft | 1 kts | 269° |
| 2026-05-03 23:54 | -31.31542 | -64.21129 | 1622 ft | 2 kts | 266° |
| 2026-05-03 23:54 | -31.31539 | -64.21111 | 1622 ft | 2 kts | 246° |
| 2026-05-03 23:55 | -31.31532 | -64.21097 | 1622 ft | 2 kts | 230° |
| 2026-05-03 23:55 | -31.31521 | -64.21085 | 1622 ft | 2 kts | 214° |
| 2026-05-03 23:55 | -31.31508 | -64.21076 | 1622 ft | 2 kts | 198° |
| 2026-05-03 23:55 | -31.31493 | -64.21073 | 1622 ft | 2 kts | 182° |
| 2026-05-03 23:56 | -31.31487 | -64.21072 | 1622 ft | 1 kts | 177° |
| 2026-05-03 23:56 | -31.31486 | -64.21073 | 1622 ft | 0 kts | 178° |
| 2026-05-03 23:58 | -31.31486 | -64.21072 | 1622 ft | 0 kts | 178° |
| 2026-05-03 23:58 | -31.31509 | -64.21072 | 1622 ft | 6 kts | 181° |
| 2026-05-03 23:58 | -31.31572 | -64.21088 | 1622 ft | 11 kts | 194° |
| 2026-05-03 23:59 | -31.31659 | -64.21098 | 1622 ft | 13 kts | 179° |
| 2026-05-03 23:59 | -31.31747 | -64.21079 | 1622 ft | 13 kts | 145° |
| 2026-05-03 23:59 | -31.31825 | -64.21032 | 1622 ft | 12 kts | 175° |
| 2026-05-03 23:59 | -31.31918 | -64.21028 | 1622 ft | 13 kts | 179° |
| 2026-05-04 00:00 | -31.32015 | -64.21027 | 1622 ft | 14 kts | 179° |
| 2026-05-04 00:00 | -31.32117 | -64.21025 | 1622 ft | 14 kts | 179° |
| 2026-05-04 00:00 | -31.32214 | -64.21024 | 1622 ft | 13 kts | 179° |
| 2026-05-04 00:00 | -31.32312 | -64.21023 | 1622 ft | 14 kts | 179° |
| 2026-05-04 00:01 | -31.32386 | -64.21021 | 1622 ft | 1 kts | 168° |
| 2026-05-04 00:01 | -31.32386 | -64.21020 | 1622 ft | 0 kts | 163° |
| 2026-05-04 00:02 | -31.32387 | -64.21020 | 1622 ft | 1 kts | 161° |
| 2026-05-04 00:03 | -31.32436 | -64.20957 | 1622 ft | 16 kts | 107° |
| 2026-05-04 00:03 | -31.32440 | -64.20861 | 1622 ft | 10 kts | 89° |
| 2026-05-04 00:03 | -31.32430 | -64.20817 | 1622 ft | 4 kts | 36° |
| 2026-05-04 00:03 | -31.32420 | -64.20814 | 1622 ft | 1 kts | 7° |
| 2026-05-04 00:04 | -31.32408 | -64.20812 | 1622 ft | 0 kts | 358° |
| 2026-05-04 00:04 | -31.32406 | -64.20812 | 1622 ft | 0 kts | 0° |
| 2026-05-04 00:05 | -31.32402 | -64.20812 | 1622 ft | 5 kts | 0° |
| 2026-05-04 00:05 | -31.32146 | -64.20816 | 1622 ft | 70 kts | 359° |
| 2026-05-04 00:06 | -31.31440 | -64.20827 | 1622 ft | 130 kts | 359° |
| 2026-05-04 00:06 | -31.30364 | -64.20844 | 1622 ft | 178 kts | 360° |
| 2026-05-04 00:06 | -31.29044 | -64.20878 | 1928 ft | 192 kts | 358° |
| 2026-05-04 00:06 | -31.27692 | -64.20896 | 2400 ft | 195 kts | 10° |
| 2026-05-04 00:07 | -31.26526 | -64.20154 | 2857 ft | 198 kts | 45° |
| 2026-05-04 00:07 | -31.25621 | -64.18958 | 3406 ft | 197 kts | 48° |
| 2026-05-04 00:07 | -31.24731 | -64.17792 | 3911 ft | 189 kts | 46° |
| 2026-05-04 00:07 | -31.24082 | -64.16496 | 4227 ft | 190 kts | 78° |
| 2026-05-04 00:08 | -31.24068 | -64.14923 | 4481 ft | 193 kts | 84° |
| 2026-05-04 00:08 | -31.23686 | -64.13464 | 4629 ft | 190 kts | 51° |
| 2026-05-04 00:08 | -31.22886 | -64.12215 | 4797 ft | 196 kts | 48° |
| 2026-05-04 00:08 | -31.22049 | -64.10928 | 4996 ft | 203 kts | 49° |
| 2026-05-04 00:09 | -31.21176 | -64.09558 | 5212 ft | 213 kts | 50° |
| 2026-05-04 00:09 | -31.20293 | -64.08111 | 5434 ft | 223 kts | 50° |
| 2026-05-04 00:09 | -31.19362 | -64.06564 | 5578 ft | 241 kts | 51° |
| 2026-05-04 00:09 | -31.18388 | -64.04915 | 5842 ft | 254 kts | 51° |
| 2026-05-04 00:10 | -31.17350 | -64.03188 | 6191 ft | 265 kts | 52° |
| 2026-05-04 00:10 | -31.16324 | -64.01383 | 6748 ft | 267 kts | 52° |
| 2026-05-04 00:10 | -31.15322 | -63.99578 | 7315 ft | 268 kts | 53° |
| 2026-05-04 00:10 | -31.14284 | -63.97747 | 7779 ft | 271 kts | 53° |
| 2026-05-04 00:11 | -31.13214 | -63.95919 | 8219 ft | 276 kts | 54° |
| 2026-05-04 00:11 | -31.12136 | -63.94062 | 8655 ft | 281 kts | 55° |
| 2026-05-04 00:11 | -31.11042 | -63.92135 | 9101 ft | 285 kts | 57° |
| 2026-05-04 00:11 | -31.09972 | -63.90196 | 9563 ft | 288 kts | 57° |
| 2026-05-04 00:12 | -31.08876 | -63.88238 | 10049 ft | 291 kts | 56° |
| 2026-05-04 00:12 | -31.07732 | -63.86246 | 10441 ft | 297 kts | 57° |
| 2026-05-04 00:12 | -31.06575 | -63.84227 | 10656 ft | 309 kts | 56° |
| 2026-05-04 00:12 | -31.05335 | -63.82087 | 10834 ft | 322 kts | 55° |
| 2026-05-04 00:13 | -31.04055 | -63.79891 | 11021 ft | 335 kts | 56° |
| 2026-05-04 00:13 | -31.02745 | -63.77581 | 11205 ft | 346 kts | 56° |
| 2026-05-04 00:13 | -31.01402 | -63.75213 | 11380 ft | 357 kts | 55° |
| 2026-05-04 00:13 | -31.00016 | -63.72781 | 11560 ft | 367 kts | 55° |
| 2026-05-04 00:14 | -30.98579 | -63.70267 | 11747 ft | 378 kts | 55° |
| 2026-05-04 00:14 | -30.97110 | -63.67702 | 11929 ft | 388 kts | 55° |
| 2026-05-04 00:14 | -30.95582 | -63.65039 | 12102 ft | 398 kts | 55° |
| 2026-05-04 00:14 | -30.94022 | -63.62323 | 12283 ft | 408 kts | 55° |
| 2026-05-04 00:15 | -30.92441 | -63.59571 | 12554 ft | 414 kts | 55° |
| 2026-05-04 00:15 | -30.90827 | -63.56763 | 12955 ft | 417 kts | 55° |
| 2026-05-04 00:15 | -30.89219 | -63.53967 | 13342 ft | 420 kts | 56° |
| 2026-05-04 00:15 | -30.87592 | -63.51141 | 13726 ft | 424 kts | 56° |
| 2026-05-04 00:16 | -30.86137 | -63.48614 | 14060 ft | 427 kts | 55° |
| 2026-05-04 00:16 | -30.84499 | -63.45771 | 14462 ft | 429 kts | 55° |
| 2026-05-04 00:16 | -30.82815 | -63.42853 | 14845 ft | 432 kts | 55° |
| 2026-05-04 00:16 | -30.81133 | -63.39939 | 15221 ft | 434 kts | 55° |
| 2026-05-04 00:17 | -30.79457 | -63.37038 | 15593 ft | 438 kts | 55° |
| 2026-05-04 00:17 | -30.77742 | -63.34079 | 15975 ft | 440 kts | 54° |
| 2026-05-04 00:17 | -30.75969 | -63.31201 | 16351 ft | 442 kts | 52° |
| 2026-05-04 00:17 | -30.74152 | -63.28302 | 16721 ft | 445 kts | 52° |
| 2026-05-04 00:18 | -30.72332 | -63.25413 | 17070 ft | 448 kts | 52° |
| 2026-05-04 00:18 | -30.70488 | -63.22488 | 17406 ft | 451 kts | 52° |
| 2026-05-04 00:18 | -30.68621 | -63.19522 | 17762 ft | 454 kts | 52° |
| 2026-05-04 00:18 | -30.66754 | -63.16557 | 18097 ft | 457 kts | 52° |
| 2026-05-04 00:19 | -30.64881 | -63.13579 | 18451 ft | 460 kts | 52° |
| 2026-05-04 00:19 | -30.62962 | -63.10530 | 18785 ft | 463 kts | 52° |
| 2026-05-04 00:19 | -30.61069 | -63.07526 | 19125 ft | 466 kts | 53° |
| 2026-05-04 00:19 | -30.59158 | -63.04494 | 19468 ft | 469 kts | 53° |
| 2026-05-04 00:20 | -30.57217 | -63.01418 | 19829 ft | 471 kts | 53° |
| 2026-05-04 00:20 | -30.55274 | -62.98340 | 20162 ft | 474 kts | 53° |
| 2026-05-04 00:20 | -30.53326 | -62.95254 | 20508 ft | 477 kts | 53° |
| 2026-05-04 00:20 | -30.51374 | -62.92165 | 20854 ft | 479 kts | 53° |
| 2026-05-04 00:21 | -30.49390 | -62.89028 | 21189 ft | 482 kts | 53° |
| 2026-05-04 00:21 | -30.47390 | -62.85869 | 21533 ft | 485 kts | 53° |
| 2026-05-04 00:21 | -30.45396 | -62.82720 | 21858 ft | 488 kts | 53° |
| 2026-05-04 00:21 | -30.43398 | -62.79570 | 22172 ft | 491 kts | 53° |
| 2026-05-04 00:22 | -30.41356 | -62.76351 | 22524 ft | 493 kts | 53° |
| 2026-05-04 00:22 | -30.39327 | -62.73154 | 22845 ft | 496 kts | 53° |
| 2026-05-04 00:22 | -30.37289 | -62.69946 | 23164 ft | 499 kts | 53° |
| 2026-05-04 00:22 | -30.35230 | -62.66714 | 23501 ft | 501 kts | 53° |
| 2026-05-04 00:23 | -30.33130 | -62.63430 | 23840 ft | 503 kts | 53° |
| 2026-05-04 00:23 | -30.31067 | -62.60217 | 24167 ft | 505 kts | 53° |
| 2026-05-04 00:23 | -30.28962 | -62.56937 | 24523 ft | 506 kts | 53° |
| 2026-05-04 00:23 | -30.26851 | -62.53647 | 24859 ft | 508 kts | 53° |
| 2026-05-04 00:24 | -30.24737 | -62.50357 | 25157 ft | 511 kts | 53° |
| 2026-05-04 00:24 | -30.22625 | -62.47070 | 25452 ft | 514 kts | 53° |
| 2026-05-04 00:24 | -30.20485 | -62.43743 | 25768 ft | 516 kts | 53° |
| 2026-05-04 00:24 | -30.18347 | -62.40421 | 26083 ft | 517 kts | 53° |
| 2026-05-04 00:25 | -30.16192 | -62.37076 | 26370 ft | 520 kts | 52° |
| 2026-05-04 00:25 | -30.14024 | -62.33712 | 26648 ft | 522 kts | 52° |
| 2026-05-04 00:25 | -30.11851 | -62.30343 | 26909 ft | 524 kts | 52° |
| 2026-05-04 00:25 | -30.09677 | -62.26978 | 27172 ft | 526 kts | 52° |
| 2026-05-04 00:26 | -30.07480 | -62.23579 | 27435 ft | 528 kts | 52° |
| 2026-05-04 00:26 | -30.05279 | -62.20179 | 27713 ft | 530 kts | 52° |
| 2026-05-04 00:26 | -30.03086 | -62.16792 | 27966 ft | 532 kts | 52° |
| 2026-05-04 00:26 | -30.00881 | -62.13388 | 28213 ft | 534 kts | 52° |
| 2026-05-04 00:27 | -29.98635 | -62.09923 | 28476 ft | 535 kts | 52° |
| 2026-05-04 00:27 | -29.96414 | -62.06500 | 28798 ft | 535 kts | 52° |
| 2026-05-04 00:27 | -29.94202 | -62.03091 | 29187 ft | 533 kts | 52° |
| 2026-05-04 00:27 | -29.91989 | -61.99684 | 29599 ft | 531 kts | 52° |
| 2026-05-04 00:28 | -29.89792 | -61.96305 | 29956 ft | 529 kts | 52° |
| 2026-05-04 00:28 | -29.87519 | -61.92942 | 30243 ft | 528 kts | 49° |
| 2026-05-04 00:28 | -29.85127 | -61.89775 | 30506 ft | 528 kts | 45° |
| 2026-05-04 00:28 | -29.82643 | -61.86706 | 30764 ft | 528 kts | 44° |
| 2026-05-04 00:29 | -29.80118 | -61.83618 | 31006 ft | 528 kts | 44° |
| 2026-05-04 00:29 | -29.77608 | -61.80556 | 31240 ft | 528 kts | 44° |
| 2026-05-04 00:29 | -29.75087 | -61.77476 | 31469 ft | 529 kts | 44° |
| 2026-05-04 00:29 | -29.72564 | -61.74390 | 31702 ft | 529 kts | 44° |
| 2026-05-04 00:30 | -29.70051 | -61.71316 | 31935 ft | 529 kts | 44° |
| 2026-05-04 00:30 | -29.67528 | -61.68225 | 32184 ft | 529 kts | 44° |
| 2026-05-04 00:30 | -29.65002 | -61.65133 | 32425 ft | 529 kts | 44° |
| 2026-05-04 00:30 | -29.62484 | -61.62054 | 32658 ft | 529 kts | 44° |
| 2026-05-04 00:31 | -29.59967 | -61.58983 | 32847 ft | 529 kts | 44° |
| 2026-05-04 00:31 | -29.57452 | -61.55911 | 33038 ft | 530 kts | 44° |
| 2026-05-04 00:31 | -29.54908 | -61.52807 | 33252 ft | 530 kts | 44° |
| 2026-05-04 00:31 | -29.52388 | -61.49735 | 33488 ft | 529 kts | 44° |
| 2026-05-04 00:32 | -29.49897 | -61.46701 | 33727 ft | 528 kts | 44° |
| 2026-05-04 00:32 | -29.47377 | -61.43634 | 33959 ft | 528 kts | 44° |
| 2026-05-04 00:32 | -29.44852 | -61.40566 | 34170 ft | 527 kts | 44° |
| 2026-05-04 00:32 | -29.42335 | -61.37508 | 34351 ft | 528 kts | 44° |
| 2026-05-04 00:33 | -29.39813 | -61.34444 | 34503 ft | 529 kts | 43° |
| 2026-05-04 00:33 | -29.34756 | -61.28309 | 34746 ft | 530 kts | 43° |
| 2026-05-04 00:33 | -29.32223 | -61.25242 | 34854 ft | 531 kts | 43° |
| 2026-05-04 00:34 | -29.29693 | -61.22177 | 34966 ft | 532 kts | 43° |
| 2026-05-04 00:34 | -29.24610 | -61.16032 | 35020 ft | 533 kts | 44° |
| 2026-05-04 00:35 | -29.19517 | -61.09883 | 35020 ft | 533 kts | 44° |
| 2026-05-04 00:35 | -29.14420 | -61.03735 | 35021 ft | 533 kts | 43° |
| 2026-05-04 00:36 | -29.09335 | -60.97625 | 35021 ft | 533 kts | 43° |
| 2026-05-04 00:36 | -29.04185 | -60.91536 | 35017 ft | 532 kts | 43° |
| 2026-05-04 00:37 | -28.99059 | -60.85498 | 35023 ft | 533 kts | 43° |
| 2026-05-04 00:37 | -28.93882 | -60.79399 | 35020 ft | 533 kts | 43° |
| 2026-05-04 00:38 | -28.88748 | -60.73354 | 35023 ft | 533 kts | 43° |
| 2026-05-04 00:38 | -28.83560 | -60.67254 | 35019 ft | 534 kts | 43° |
| 2026-05-04 00:39 | -28.78413 | -60.61210 | 35022 ft | 535 kts | 43° |
| 2026-05-04 00:39 | -28.73254 | -60.55115 | 35024 ft | 536 kts | 44° |
| 2026-05-04 00:40 | -28.68100 | -60.48976 | 35025 ft | 537 kts | 44° |
| 2026-05-04 00:40 | -28.62946 | -60.42847 | 35030 ft | 536 kts | 43° |
| 2026-05-04 00:41 | -28.57750 | -60.36691 | 35027 ft | 537 kts | 44° |
| 2026-05-04 00:41 | -28.52613 | -60.30612 | 35033 ft | 537 kts | 43° |
| 2026-05-04 00:42 | -28.47430 | -60.24488 | 35030 ft | 538 kts | 43° |
| 2026-05-04 00:42 | -28.42227 | -60.18349 | 35032 ft | 538 kts | 43° |
| 2026-05-04 00:43 | -28.37054 | -60.12254 | 35037 ft | 538 kts | 43° |
| 2026-05-04 00:43 | -28.31867 | -60.06154 | 35036 ft | 538 kts | 43° |
| 2026-05-04 00:44 | -28.26674 | -60.00055 | 35036 ft | 539 kts | 43° |
| 2026-05-04 00:44 | -28.21464 | -59.93943 | 35035 ft | 539 kts | 43° |
| 2026-05-04 00:45 | -28.16242 | -59.87829 | 35036 ft | 539 kts | 43° |
| 2026-05-04 00:45 | -28.11055 | -59.81764 | 35037 ft | 539 kts | 43° |
| 2026-05-04 00:46 | -28.05822 | -59.75686 | 35035 ft | 538 kts | 43° |
| 2026-05-04 00:46 | -28.00555 | -59.69619 | 35034 ft | 539 kts | 43° |
| 2026-05-04 00:47 | -27.95324 | -59.63599 | 35037 ft | 540 kts | 43° |
| 2026-05-04 00:47 | -27.90065 | -59.57545 | 35035 ft | 540 kts | 43° |
| 2026-05-04 00:48 | -27.84811 | -59.51512 | 35033 ft | 540 kts | 43° |
| 2026-05-04 00:48 | -27.79527 | -59.45452 | 35033 ft | 540 kts | 43° |
| 2026-05-04 00:49 | -27.74266 | -59.39425 | 35034 ft | 540 kts | 43° |
| 2026-05-04 00:49 | -27.69000 | -59.33401 | 35030 ft | 541 kts | 42° |
| 2026-05-04 00:50 | -27.63714 | -59.27362 | 35032 ft | 540 kts | 42° |
| 2026-05-04 00:50 | -27.58434 | -59.21340 | 35031 ft | 540 kts | 42° |
| 2026-05-04 00:51 | -27.53145 | -59.15318 | 35032 ft | 541 kts | 42° |
| 2026-05-04 00:51 | -27.47815 | -59.09374 | 35034 ft | 539 kts | 39° |
| 2026-05-04 00:52 | -27.42029 | -59.04063 | 35036 ft | 534 kts | 31° |
| 2026-05-04 00:52 | -27.35815 | -58.99584 | 35032 ft | 530 kts | 26° |
| 2026-05-04 00:53 | -27.29459 | -58.95317 | 35028 ft | 531 kts | 26° |
| 2026-05-04 00:53 | -27.23130 | -58.91040 | 35031 ft | 531 kts | 26° |
| 2026-05-04 00:54 | -27.16815 | -58.86757 | 35027 ft | 532 kts | 26° |
| 2026-05-04 00:54 | -27.10489 | -58.82465 | 35027 ft | 532 kts | 26° |
| 2026-05-04 00:55 | -27.04149 | -58.78173 | 35019 ft | 532 kts | 26° |
| 2026-05-04 00:55 | -26.97833 | -58.73905 | 35015 ft | 532 kts | 26° |
| 2026-05-04 00:56 | -26.91466 | -58.69611 | 35014 ft | 532 kts | 26° |
| 2026-05-04 00:56 | -26.85148 | -58.65353 | 35015 ft | 532 kts | 26° |
| 2026-05-04 00:57 | -26.78783 | -58.61071 | 35012 ft | 532 kts | 26° |
| 2026-05-04 00:57 | -26.72457 | -58.56821 | 35018 ft | 533 kts | 26° |
| 2026-05-04 00:58 | -26.66100 | -58.52554 | 35019 ft | 532 kts | 26° |
| 2026-05-04 00:58 | -26.59730 | -58.48286 | 35017 ft | 533 kts | 26° |
| 2026-05-04 00:59 | -26.53389 | -58.44040 | 35018 ft | 533 kts | 26° |
| 2026-05-04 00:59 | -26.47037 | -58.39795 | 35016 ft | 532 kts | 26° |
| 2026-05-04 01:00 | -26.40671 | -58.35545 | 35014 ft | 533 kts | 26° |
| 2026-05-04 01:00 | -26.34346 | -58.31324 | 35015 ft | 531 kts | 25° |
| 2026-05-04 01:01 | -26.28024 | -58.27115 | 35010 ft | 531 kts | 25° |
| 2026-05-04 01:01 | -26.21661 | -58.22882 | 35010 ft | 532 kts | 26° |
| 2026-05-04 01:02 | -26.15441 | -58.18393 | 35011 ft | 534 kts | 28° |
| 2026-05-04 01:02 | -26.09262 | -58.13855 | 35005 ft | 533 kts | 28° |
| 2026-05-04 01:03 | -26.03048 | -58.09300 | 35004 ft | 534 kts | 28° |
| 2026-05-04 01:03 | -25.96859 | -58.04779 | 34999 ft | 533 kts | 28° |
| 2026-05-04 01:04 | -25.90654 | -58.00255 | 35000 ft | 534 kts | 28° |
| 2026-05-04 01:04 | -25.84438 | -57.95724 | 35001 ft | 535 kts | 28° |
| 2026-05-04 01:05 | -25.78209 | -57.91190 | 34998 ft | 534 kts | 28° |
| 2026-05-04 01:05 | -25.72019 | -57.86689 | 35002 ft | 534 kts | 28° |
| 2026-05-04 01:06 | -25.65791 | -57.82162 | 35000 ft | 534 kts | 28° |
| 2026-05-04 01:06 | -25.59590 | -57.77653 | 35002 ft | 534 kts | 28° |
| 2026-05-04 01:07 | -25.53396 | -57.73156 | 35005 ft | 534 kts | 28° |
| 2026-05-04 01:07 | -25.47162 | -57.68636 | 35007 ft | 534 kts | 28° |
| 2026-05-04 01:08 | -25.40999 | -57.64173 | 35010 ft | 533 kts | 28° |
| 2026-05-04 01:08 | -25.34711 | -57.59623 | 35014 ft | 534 kts | 28° |
| 2026-05-04 01:09 | -25.28524 | -57.55125 | 35015 ft | 536 kts | 30° |
| 2026-05-04 01:09 | -25.22611 | -57.50048 | 35016 ft | 541 kts | 38° |
| 2026-05-04 01:10 | -25.17188 | -57.44235 | 35016 ft | 545 kts | 42° |
| 2026-05-04 01:10 | -25.11865 | -57.38229 | 35019 ft | 545 kts | 42° |
| 2026-05-04 01:11 | -25.06557 | -57.32281 | 35013 ft | 544 kts | 42° |
| 2026-05-04 01:11 | -25.01262 | -57.26376 | 35010 ft | 544 kts | 41° |
| 2026-05-04 01:12 | -24.95908 | -57.20431 | 35010 ft | 544 kts | 41° |
| 2026-05-04 01:12 | -24.90587 | -57.14522 | 35009 ft | 544 kts | 41° |
| 2026-05-04 01:13 | -24.85261 | -57.08624 | 35005 ft | 544 kts | 41° |
| 2026-05-04 01:13 | -24.79938 | -57.02729 | 35005 ft | 544 kts | 41° |
| 2026-05-04 01:14 | -24.74602 | -56.96830 | 35006 ft | 544 kts | 41° |
| 2026-05-04 01:14 | -24.69242 | -56.90913 | 35003 ft | 544 kts | 41° |
| 2026-05-04 01:15 | -24.63933 | -56.85061 | 35005 ft | 544 kts | 41° |
| 2026-05-04 01:15 | -24.58588 | -56.79191 | 35007 ft | 544 kts | 41° |
| 2026-05-04 01:16 | -24.53228 | -56.73316 | 35010 ft | 544 kts | 41° |
| 2026-05-04 01:16 | -24.47887 | -56.67466 | 35013 ft | 543 kts | 41° |
| 2026-05-04 01:17 | -24.42535 | -56.61606 | 35015 ft | 543 kts | 41° |
| 2026-05-04 01:17 | -24.37197 | -56.55774 | 35018 ft | 543 kts | 41° |
| 2026-05-04 01:18 | -24.31844 | -56.49934 | 35018 ft | 544 kts | 41° |
| 2026-05-04 01:18 | -24.26460 | -56.44061 | 35021 ft | 543 kts | 41° |
| 2026-05-04 01:19 | -24.21115 | -56.38242 | 35016 ft | 543 kts | 41° |
| 2026-05-04 01:19 | -24.15737 | -56.32396 | 35013 ft | 543 kts | 40° |
| 2026-05-04 01:20 | -24.10402 | -56.26600 | 35011 ft | 544 kts | 41° |
| 2026-05-04 01:20 | -24.05015 | -56.20758 | 35004 ft | 544 kts | 40° |
| 2026-05-04 01:21 | -23.99649 | -56.14945 | 34997 ft | 544 kts | 40° |
| 2026-05-04 01:21 | -23.94273 | -56.09129 | 34996 ft | 544 kts | 40° |
| 2026-05-04 01:22 | -23.88887 | -56.03308 | 34994 ft | 543 kts | 40° |
| 2026-05-04 01:22 | -23.83509 | -55.97504 | 34998 ft | 543 kts | 40° |
| 2026-05-04 01:23 | -23.78167 | -55.91742 | 35004 ft | 542 kts | 40° |
| 2026-05-04 01:23 | -23.72772 | -55.85935 | 35011 ft | 543 kts | 41° |
| 2026-05-04 01:24 | -23.67404 | -55.80158 | 35018 ft | 542 kts | 41° |
| 2026-05-04 01:24 | -23.62034 | -55.74390 | 35025 ft | 541 kts | 40° |
| 2026-05-04 01:25 | -23.56701 | -55.68668 | 35028 ft | 541 kts | 41° |
| 2026-05-04 01:25 | -23.51316 | -55.62894 | 35035 ft | 541 kts | 41° |
| 2026-05-04 01:26 | -23.45997 | -55.57193 | 35041 ft | 540 kts | 40° |
| 2026-05-04 01:26 | -23.40621 | -55.51445 | 35045 ft | 539 kts | 41° |
| 2026-05-04 01:27 | -23.35302 | -55.45763 | 35059 ft | 539 kts | 41° |
| 2026-05-04 01:27 | -23.29929 | -55.40031 | 35063 ft | 539 kts | 41° |
| 2026-05-04 01:28 | -23.24576 | -55.34325 | 35065 ft | 538 kts | 40° |
| 2026-05-04 01:28 | -23.19229 | -55.28630 | 35072 ft | 538 kts | 40° |
| 2026-05-04 01:29 | -23.13916 | -55.22977 | 35072 ft | 537 kts | 40° |
| 2026-05-04 01:29 | -23.08549 | -55.17276 | 35070 ft | 537 kts | 40° |
| 2026-05-04 01:30 | -23.03234 | -55.11637 | 35072 ft | 536 kts | 40° |
| 2026-05-04 01:30 | -22.97916 | -55.06004 | 35072 ft | 536 kts | 40° |
| 2026-05-04 01:31 | -22.92577 | -55.00354 | 35067 ft | 535 kts | 40° |
| 2026-05-04 01:31 | -22.87230 | -54.94700 | 35069 ft | 536 kts | 40° |
| 2026-05-04 01:32 | -22.81932 | -54.89103 | 35065 ft | 533 kts | 40° |
| 2026-05-04 01:32 | -22.76609 | -54.83487 | 35065 ft | 532 kts | 40° |
| 2026-05-04 01:33 | -22.71298 | -54.77890 | 35064 ft | 532 kts | 40° |
| 2026-05-04 01:33 | -22.66023 | -54.72339 | 35062 ft | 531 kts | 40° |
| 2026-05-04 01:34 | -22.60727 | -54.66769 | 35061 ft | 531 kts | 40° |
| 2026-05-04 01:34 | -22.55430 | -54.61207 | 35058 ft | 530 kts | 40° |
| 2026-05-04 01:35 | -22.50128 | -54.55670 | 35058 ft | 530 kts | 40° |
| 2026-05-04 01:35 | -22.44805 | -54.50120 | 35060 ft | 529 kts | 39° |
| 2026-05-04 01:36 | -22.39515 | -54.44612 | 35059 ft | 529 kts | 39° |
| 2026-05-04 01:36 | -22.34239 | -54.39123 | 35059 ft | 528 kts | 40° |
| 2026-05-04 01:37 | -22.28957 | -54.33630 | 35056 ft | 527 kts | 39° |
| 2026-05-04 01:37 | -22.23674 | -54.28145 | 35057 ft | 527 kts | 39° |
| 2026-05-04 01:38 | -22.18404 | -54.22675 | 35062 ft | 526 kts | 39° |
| 2026-05-04 01:38 | -22.13140 | -54.17223 | 35062 ft | 526 kts | 39° |
| 2026-05-04 01:39 | -22.07839 | -54.11735 | 35064 ft | 525 kts | 39° |
| 2026-05-04 01:39 | -22.02575 | -54.06296 | 35067 ft | 525 kts | 39° |
| 2026-05-04 01:40 | -21.97300 | -54.00847 | 35060 ft | 525 kts | 39° |
| 2026-05-04 01:40 | -21.92030 | -53.95412 | 35052 ft | 525 kts | 39° |
| 2026-05-04 01:41 | -21.86764 | -53.89982 | 35048 ft | 524 kts | 39° |
| 2026-05-04 01:41 | -21.81470 | -53.84530 | 35048 ft | 524 kts | 39° |
| 2026-05-04 01:42 | -21.76219 | -53.79132 | 35049 ft | 523 kts | 39° |
| 2026-05-04 01:42 | -21.70980 | -53.73748 | 35049 ft | 522 kts | 39° |
| 2026-05-04 01:43 | -21.65725 | -53.68356 | 35053 ft | 522 kts | 40° |
| 2026-05-04 01:43 | -21.60474 | -53.62973 | 35054 ft | 521 kts | 39° |
| 2026-05-04 01:44 | -21.55234 | -53.57611 | 35054 ft | 522 kts | 39° |
| 2026-05-04 01:44 | -21.49986 | -53.52244 | 35051 ft | 522 kts | 39° |
| 2026-05-04 01:45 | -21.44745 | -53.46882 | 35049 ft | 521 kts | 40° |
| 2026-05-04 01:45 | -21.36977 | -53.38679 | 35050 ft | 521 kts | 40° |
| 2026-05-04 01:46 | -21.31812 | -53.33210 | 35048 ft | 521 kts | 40° |
| 2026-05-04 01:46 | -21.26665 | -53.27779 | 35049 ft | 520 kts | 40° |
| 2026-05-04 01:47 | -21.21497 | -53.22333 | 35048 ft | 520 kts | 40° |
| 2026-05-04 01:47 | -21.16344 | -53.16912 | 35048 ft | 519 kts | 40° |
| 2026-05-04 01:48 | -21.11182 | -53.11483 | 35048 ft | 519 kts | 40° |
| 2026-05-04 01:48 | -21.06012 | -53.06116 | 35049 ft | 517 kts | 39° |
| 2026-05-04 01:49 | -21.00763 | -53.00867 | 35048 ft | 517 kts | 38° |
| 2026-05-04 01:49 | -20.95510 | -52.95615 | 35050 ft | 517 kts | 39° |
| 2026-05-04 01:50 | -20.90259 | -52.90348 | 35052 ft | 517 kts | 39° |
| 2026-05-04 01:50 | -20.85023 | -52.85096 | 35055 ft | 516 kts | 39° |
| 2026-05-04 01:51 | -20.79811 | -52.79801 | 35051 ft | 518 kts | 40° |
| 2026-05-04 01:51 | -20.74591 | -52.74455 | 35049 ft | 518 kts | 40° |
| 2026-05-04 01:52 | -20.69395 | -52.69149 | 35048 ft | 517 kts | 39° |
| 2026-05-04 01:52 | -20.64200 | -52.63858 | 35049 ft | 516 kts | 40° |
| 2026-05-04 01:53 | -20.59011 | -52.58575 | 35051 ft | 516 kts | 39° |
| 2026-05-04 01:53 | -20.53820 | -52.53293 | 35050 ft | 516 kts | 40° |
| 2026-05-04 01:54 | -20.48624 | -52.48011 | 35053 ft | 516 kts | 40° |
| 2026-05-04 01:54 | -20.43429 | -52.42735 | 35053 ft | 516 kts | 40° |
| 2026-05-04 01:55 | -20.38229 | -52.37461 | 35052 ft | 516 kts | 40° |
| 2026-05-04 01:55 | -20.33022 | -52.32179 | 35050 ft | 515 kts | 39° |
| 2026-05-04 01:56 | -20.27801 | -52.26894 | 35051 ft | 515 kts | 39° |
| 2026-05-04 01:56 | -20.22620 | -52.21649 | 35050 ft | 515 kts | 39° |
| 2026-05-04 01:57 | -20.17432 | -52.16402 | 35049 ft | 515 kts | 39° |
| 2026-05-04 01:57 | -20.12266 | -52.11181 | 35051 ft | 514 kts | 39° |
| 2026-05-04 01:58 | -20.07060 | -52.05925 | 35053 ft | 514 kts | 39° |
| 2026-05-04 01:58 | -20.01860 | -52.00680 | 35059 ft | 514 kts | 39° |
| 2026-05-04 01:59 | -19.96683 | -51.95464 | 35061 ft | 514 kts | 39° |
| 2026-05-04 01:59 | -19.91478 | -51.90223 | 35063 ft | 515 kts | 40° |
| 2026-05-04 02:00 | -19.86283 | -51.84996 | 35065 ft | 515 kts | 40° |
| 2026-05-04 02:00 | -19.81110 | -51.79773 | 35068 ft | 515 kts | 40° |
| 2026-05-04 02:01 | -19.75930 | -51.74541 | 35070 ft | 514 kts | 40° |
| 2026-05-04 02:01 | -19.70753 | -51.69321 | 35073 ft | 515 kts | 40° |
| 2026-05-04 02:02 | -19.65560 | -51.64094 | 35073 ft | 514 kts | 40° |
| 2026-05-04 02:02 | -19.60348 | -51.58897 | 35074 ft | 514 kts | 40° |
| 2026-05-04 02:03 | -19.55123 | -51.53703 | 35066 ft | 514 kts | 39° |
| 2026-05-04 02:03 | -19.49919 | -51.48529 | 35060 ft | 514 kts | 40° |
| 2026-05-04 02:04 | -19.44705 | -51.43348 | 35059 ft | 514 kts | 40° |
| 2026-05-04 02:04 | -19.39501 | -51.38179 | 35061 ft | 514 kts | 40° |
| 2026-05-04 02:05 | -19.34283 | -51.33006 | 35059 ft | 513 kts | 40° |
| 2026-05-04 02:05 | -19.29069 | -51.27837 | 35056 ft | 513 kts | 39° |
| 2026-05-04 02:06 | -19.23858 | -51.22675 | 35055 ft | 513 kts | 39° |
| 2026-05-04 02:06 | -19.18651 | -51.17523 | 35058 ft | 513 kts | 39° |
| 2026-05-04 02:07 | -19.13430 | -51.12363 | 35071 ft | 512 kts | 39° |
| 2026-05-04 02:07 | -19.08241 | -51.07238 | 35074 ft | 512 kts | 39° |
| 2026-05-04 02:08 | -19.03034 | -51.02104 | 35084 ft | 512 kts | 39° |
| 2026-05-04 02:08 | -18.97828 | -50.96972 | 35088 ft | 512 kts | 39° |
| 2026-05-04 02:09 | -18.92609 | -50.91832 | 35088 ft | 512 kts | 39° |
| 2026-05-04 02:09 | -18.87385 | -50.86692 | 35085 ft | 513 kts | 39° |
| 2026-05-04 02:10 | -18.82150 | -50.81581 | 35086 ft | 511 kts | 39° |
| 2026-05-04 02:10 | -18.76866 | -50.76553 | 35082 ft | 511 kts | 39° |
| 2026-05-04 02:11 | -18.71608 | -50.71530 | 35090 ft | 510 kts | 39° |
| 2026-05-04 02:11 | -18.66361 | -50.66514 | 35088 ft | 510 kts | 39° |
| 2026-05-04 02:12 | -18.61117 | -50.61503 | 35091 ft | 510 kts | 39° |
| 2026-05-04 02:12 | -18.55847 | -50.56470 | 35085 ft | 510 kts | 39° |
| 2026-05-04 02:13 | -18.50590 | -50.51456 | 35084 ft | 510 kts | 39° |
| 2026-05-04 02:13 | -18.45326 | -50.46417 | 35085 ft | 509 kts | 39° |
| 2026-05-04 02:14 | -18.40117 | -50.41390 | 35086 ft | 509 kts | 39° |
| 2026-05-04 02:14 | -18.34902 | -50.36367 | 35087 ft | 509 kts | 39° |
| 2026-05-04 02:15 | -18.29654 | -50.31315 | 35086 ft | 508 kts | 39° |
| 2026-05-04 02:15 | -18.24466 | -50.26330 | 35085 ft | 508 kts | 39° |
| 2026-05-04 02:16 | -18.19240 | -50.21312 | 35079 ft | 507 kts | 39° |
| 2026-05-04 02:16 | -18.14030 | -50.16312 | 35076 ft | 507 kts | 39° |
| 2026-05-04 02:17 | -18.08841 | -50.11338 | 35075 ft | 507 kts | 39° |
| 2026-05-04 02:17 | -18.03641 | -50.06355 | 35079 ft | 507 kts | 39° |
| 2026-05-04 02:18 | -17.98408 | -50.01338 | 35086 ft | 507 kts | 39° |
| 2026-05-04 02:18 | -17.93239 | -49.96324 | 35087 ft | 507 kts | 40° |
| 2026-05-04 02:19 | -17.88077 | -49.91319 | 35089 ft | 506 kts | 40° |
| 2026-05-04 02:19 | -17.82890 | -49.86304 | 35089 ft | 506 kts | 40° |
| 2026-05-04 02:20 | -17.77716 | -49.81312 | 35087 ft | 506 kts | 40° |
| 2026-05-04 02:20 | -17.72529 | -49.76310 | 35096 ft | 506 kts | 40° |
| 2026-05-04 02:21 | -17.67334 | -49.71302 | 35099 ft | 506 kts | 40° |
| 2026-05-04 02:21 | -17.62169 | -49.66325 | 35099 ft | 506 kts | 40° |
| 2026-05-04 02:22 | -17.56983 | -49.61335 | 35100 ft | 506 kts | 40° |
| 2026-05-04 02:22 | -17.51819 | -49.56369 | 35103 ft | 505 kts | 40° |
| 2026-05-04 02:23 | -17.46635 | -49.51386 | 35106 ft | 505 kts | 40° |
| 2026-05-04 02:23 | -17.41467 | -49.46426 | 35106 ft | 504 kts | 40° |
| 2026-05-04 02:24 | -17.36275 | -49.41445 | 35103 ft | 505 kts | 40° |
| 2026-05-04 02:24 | -17.31125 | -49.36508 | 35106 ft | 504 kts | 40° |
| 2026-05-04 02:25 | -17.25943 | -49.31544 | 35104 ft | 504 kts | 40° |
| 2026-05-04 02:25 | -17.20766 | -49.26587 | 35112 ft | 503 kts | 40° |
| 2026-05-04 02:26 | -17.15602 | -49.21644 | 35124 ft | 504 kts | 40° |
| 2026-05-04 02:26 | -17.10415 | -49.16685 | 35136 ft | 503 kts | 40° |
| 2026-05-04 02:27 | -17.05246 | -49.11761 | 35144 ft | 502 kts | 39° |
| 2026-05-04 02:27 | -17.00049 | -49.06915 | 35146 ft | 502 kts | 39° |
| 2026-05-04 02:28 | -16.94832 | -49.02061 | 35146 ft | 502 kts | 39° |
| 2026-05-04 02:28 | -16.89615 | -48.97192 | 35145 ft | 502 kts | 39° |
| 2026-05-04 02:29 | -16.84520 | -48.92387 | 35150 ft | 502 kts | 40° |
| 2026-05-04 02:29 | -16.79349 | -48.87507 | 35161 ft | 502 kts | 40° |
| 2026-05-04 02:30 | -16.74170 | -48.82624 | 35166 ft | 502 kts | 40° |
| 2026-05-04 02:30 | -16.68977 | -48.77737 | 35174 ft | 502 kts | 40° |
| 2026-05-04 02:31 | -16.64660 | -48.73678 | 35173 ft | 502 kts | 40° |
| 2026-05-04 02:31 | -16.58625 | -48.68005 | 35179 ft | 501 kts | 40° |
| 2026-05-04 02:32 | -16.53429 | -48.63127 | 35179 ft | 501 kts | 40° |
| 2026-05-04 02:32 | -16.48263 | -48.58287 | 35181 ft | 501 kts | 40° |
| 2026-05-04 02:33 | -16.43078 | -48.53430 | 35183 ft | 501 kts | 40° |
| 2026-05-04 02:33 | -16.37899 | -48.48582 | 35187 ft | 501 kts | 40° |
| 2026-05-04 02:34 | -16.32700 | -48.43717 | 35189 ft | 500 kts | 40° |
| 2026-05-04 02:34 | -16.27541 | -48.38893 | 35190 ft | 500 kts | 40° |
| 2026-05-04 02:35 | -16.22349 | -48.34044 | 35188 ft | 500 kts | 40° |
| 2026-05-04 02:35 | -16.17186 | -48.29225 | 35189 ft | 500 kts | 40° |
| 2026-05-04 02:36 | -16.12005 | -48.24394 | 35190 ft | 500 kts | 40° |
| 2026-05-04 02:36 | -16.06839 | -48.19579 | 35196 ft | 500 kts | 40° |
| 2026-05-04 02:37 | -16.01650 | -48.14745 | 35206 ft | 499 kts | 40° |
| 2026-05-04 02:37 | -15.96469 | -48.09922 | 35215 ft | 499 kts | 40° |
| 2026-05-04 02:38 | -15.91295 | -48.05110 | 35226 ft | 499 kts | 40° |
| 2026-05-04 02:38 | -15.86120 | -48.00300 | 35231 ft | 499 kts | 40° |
| 2026-05-04 02:39 | -15.80914 | -47.95465 | 35232 ft | 498 kts | 40° |
| 2026-05-04 02:39 | -15.75777 | -47.90699 | 35226 ft | 498 kts | 40° |
| 2026-05-04 02:40 | -15.70596 | -47.85895 | 35223 ft | 499 kts | 40° |
| 2026-05-04 02:40 | -15.65415 | -47.81094 | 35213 ft | 498 kts | 40° |
| 2026-05-04 02:41 | -15.60239 | -47.76299 | 35206 ft | 498 kts | 40° |
| 2026-05-04 02:41 | -15.55068 | -47.71514 | 35203 ft | 498 kts | 40° |
| 2026-05-04 02:42 | -15.49898 | -47.66731 | 35202 ft | 498 kts | 40° |
| 2026-05-04 02:42 | -15.44750 | -47.61975 | 35204 ft | 497 kts | 40° |
| 2026-05-04 02:43 | -15.39564 | -47.57185 | 35201 ft | 497 kts | 40° |
| 2026-05-04 02:43 | -15.34416 | -47.52434 | 35200 ft | 497 kts | 40° |
| 2026-05-04 02:44 | -15.29237 | -47.47659 | 35189 ft | 498 kts | 40° |
| 2026-05-04 02:44 | -15.24065 | -47.42891 | 35175 ft | 497 kts | 40° |
| 2026-05-04 02:45 | -15.18888 | -47.38125 | 35165 ft | 497 kts | 40° |
| 2026-05-04 02:45 | -15.13730 | -47.33378 | 35151 ft | 496 kts | 40° |
| 2026-05-04 02:46 | -15.08561 | -47.28623 | 35142 ft | 496 kts | 40° |
| 2026-05-04 02:46 | -15.03430 | -47.23907 | 35125 ft | 495 kts | 40° |
| 2026-05-04 02:47 | -14.98278 | -47.19177 | 35110 ft | 496 kts | 40° |
| 2026-05-04 02:47 | -14.93106 | -47.14428 | 35112 ft | 496 kts | 40° |
| 2026-05-04 02:48 | -14.87933 | -47.09681 | 35111 ft | 495 kts | 40° |
| 2026-05-04 02:48 | -14.82784 | -47.04961 | 35100 ft | 495 kts | 40° |
| 2026-05-04 02:49 | -14.77596 | -47.00277 | 35098 ft | 494 kts | 37° |
| 2026-05-04 02:49 | -14.72181 | -46.95895 | 35094 ft | 494 kts | 36° |
| 2026-05-04 02:50 | -14.66754 | -46.91553 | 35093 ft | 494 kts | 36° |
| 2026-05-04 02:50 | -14.61328 | -46.87207 | 35097 ft | 494 kts | 36° |
| 2026-05-04 02:51 | -14.55907 | -46.82862 | 35097 ft | 493 kts | 36° |
| 2026-05-04 02:51 | -14.50485 | -46.78519 | 35097 ft | 493 kts | 36° |
| 2026-05-04 02:52 | -14.45049 | -46.74175 | 35097 ft | 494 kts | 36° |
| 2026-05-04 02:52 | -14.39619 | -46.69840 | 35099 ft | 494 kts | 36° |
| 2026-05-04 02:53 | -14.34172 | -46.65492 | 35101 ft | 493 kts | 36° |
| 2026-05-04 02:53 | -14.28741 | -46.61160 | 35104 ft | 493 kts | 36° |
| 2026-05-04 02:54 | -14.23300 | -46.56822 | 35105 ft | 493 kts | 37° |
| 2026-05-04 02:54 | -14.17869 | -46.52492 | 35111 ft | 494 kts | 37° |
| 2026-05-04 02:55 | -14.09758 | -46.46026 | 35119 ft | 493 kts | 37° |
| 2026-05-04 02:56 | -14.04314 | -46.41690 | 35125 ft | 492 kts | 37° |
| 2026-05-04 02:56 | -13.98893 | -46.37375 | 35133 ft | 491 kts | 37° |
| 2026-05-04 02:57 | -13.93507 | -46.33091 | 35139 ft | 491 kts | 36° |
| 2026-05-04 02:57 | -13.88083 | -46.28778 | 35148 ft | 491 kts | 36° |
| 2026-05-04 02:58 | -13.82659 | -46.24469 | 35159 ft | 491 kts | 36° |
| 2026-05-04 02:58 | -13.77262 | -46.20185 | 35166 ft | 492 kts | 36° |
| 2026-05-04 02:59 | -13.71842 | -46.15886 | 35167 ft | 491 kts | 36° |
| 2026-05-04 02:59 | -13.66445 | -46.11606 | 35166 ft | 490 kts | 36° |
| 2026-05-04 03:00 | -13.61010 | -46.07299 | 35163 ft | 490 kts | 36° |
| 2026-05-04 03:00 | -13.55628 | -46.03036 | 35163 ft | 490 kts | 36° |
| 2026-05-04 03:01 | -13.50235 | -45.98766 | 35161 ft | 490 kts | 36° |
| 2026-05-04 03:01 | -13.44813 | -45.94475 | 35158 ft | 491 kts | 36° |
| 2026-05-04 03:02 | -13.39411 | -45.90204 | 35155 ft | 491 kts | 36° |
| 2026-05-04 03:02 | -13.33976 | -45.85908 | 35153 ft | 490 kts | 36° |
| 2026-05-04 03:03 | -13.28568 | -45.81636 | 35152 ft | 491 kts | 36° |
| 2026-05-04 03:03 | -13.23166 | -45.77370 | 35153 ft | 491 kts | 36° |
| 2026-05-04 03:04 | -13.17747 | -45.73096 | 35150 ft | 492 kts | 37° |
| 2026-05-04 03:04 | -13.12308 | -45.68802 | 35147 ft | 492 kts | 37° |
| 2026-05-04 03:05 | -13.06890 | -45.64532 | 35143 ft | 492 kts | 37° |
| 2026-05-04 03:05 | -13.01448 | -45.60252 | 35139 ft | 492 kts | 37° |
| 2026-05-04 03:06 | -12.96005 | -45.55973 | 35137 ft | 492 kts | 37° |
| 2026-05-04 03:06 | -12.90597 | -45.51722 | 35134 ft | 492 kts | 36° |
| 2026-05-04 03:07 | -12.85137 | -45.47434 | 35127 ft | 492 kts | 37° |
| 2026-05-04 03:07 | -12.79720 | -45.43180 | 35119 ft | 491 kts | 37° |
| 2026-05-04 03:08 | -12.74315 | -45.38939 | 35112 ft | 492 kts | 36° |
| 2026-05-04 03:08 | -12.68848 | -45.34653 | 35109 ft | 492 kts | 36° |
| 2026-05-04 03:09 | -12.63409 | -45.30391 | 35107 ft | 492 kts | 36° |
| 2026-05-04 03:09 | -12.57984 | -45.26143 | 35104 ft | 491 kts | 36° |
| 2026-05-04 03:10 | -12.52558 | -45.21894 | 35101 ft | 491 kts | 36° |
| 2026-05-04 03:10 | -12.47136 | -45.17648 | 35104 ft | 491 kts | 36° |
| 2026-05-04 03:11 | -12.41691 | -45.13388 | 35108 ft | 492 kts | 36° |
| 2026-05-04 03:11 | -12.36233 | -45.09119 | 35110 ft | 493 kts | 36° |
| 2026-05-04 03:12 | -12.30778 | -45.04854 | 35110 ft | 493 kts | 36° |
| 2026-05-04 03:12 | -12.25307 | -45.00580 | 35105 ft | 493 kts | 36° |
| 2026-05-04 03:13 | -12.19861 | -44.96329 | 35097 ft | 493 kts | 36° |
| 2026-05-04 03:13 | -12.14401 | -44.92068 | 35090 ft | 492 kts | 36° |
| 2026-05-04 03:14 | -12.08979 | -44.87839 | 35084 ft | 493 kts | 36° |
| 2026-05-04 03:14 | -12.03492 | -44.83561 | 35080 ft | 493 kts | 36° |
| 2026-05-04 03:15 | -11.98031 | -44.79306 | 35077 ft | 494 kts | 36° |
| 2026-05-04 03:15 | -11.92576 | -44.75058 | 35074 ft | 494 kts | 36° |
| 2026-05-04 03:16 | -11.87091 | -44.70787 | 35063 ft | 494 kts | 36° |
| 2026-05-04 03:16 | -11.81643 | -44.66548 | 35053 ft | 493 kts | 36° |
| 2026-05-04 03:17 | -11.76195 | -44.62313 | 35046 ft | 493 kts | 36° |
| 2026-05-04 03:17 | -11.70704 | -44.58047 | 35041 ft | 493 kts | 36° |
| 2026-05-04 03:18 | -11.65249 | -44.53811 | 35042 ft | 493 kts | 36° |
| 2026-05-04 03:18 | -11.59772 | -44.49558 | 35043 ft | 494 kts | 36° |
| 2026-05-04 03:19 | -11.54319 | -44.45325 | 35046 ft | 494 kts | 36° |
| 2026-05-04 03:19 | -11.48836 | -44.41072 | 35045 ft | 494 kts | 36° |
| 2026-05-04 03:20 | -11.43356 | -44.36823 | 35040 ft | 494 kts | 36° |
| 2026-05-04 03:20 | -11.37894 | -44.32594 | 35042 ft | 494 kts | 36° |
| 2026-05-04 03:21 | -11.32406 | -44.28347 | 35041 ft | 493 kts | 36° |
| 2026-05-04 03:21 | -11.26970 | -44.24139 | 35043 ft | 494 kts | 36° |
| 2026-05-04 03:22 | -11.21469 | -44.19882 | 35043 ft | 494 kts | 36° |
| 2026-05-04 03:22 | -11.15994 | -44.15648 | 35048 ft | 494 kts | 36° |
| 2026-05-04 03:23 | -11.10533 | -44.11427 | 35049 ft | 494 kts | 35° |
| 2026-05-04 03:23 | -11.05059 | -44.07197 | 35053 ft | 494 kts | 35° |
| 2026-05-04 03:24 | -10.99577 | -44.02964 | 35060 ft | 493 kts | 35° |
| 2026-05-04 03:24 | -10.94089 | -43.98727 | 35062 ft | 494 kts | 35° |
| 2026-05-04 03:25 | -10.88614 | -43.94502 | 35064 ft | 494 kts | 36° |
| 2026-05-04 03:25 | -10.83127 | -43.90270 | 35062 ft | 494 kts | 36° |
| 2026-05-04 03:26 | -10.77647 | -43.86045 | 35059 ft | 494 kts | 36° |
| 2026-05-04 03:26 | -10.72164 | -43.81818 | 35058 ft | 494 kts | 36° |
| 2026-05-04 03:27 | -10.66692 | -43.77606 | 35057 ft | 494 kts | 35° |
| 2026-05-04 03:27 | -10.61214 | -43.73392 | 35056 ft | 494 kts | 35° |
| 2026-05-04 03:28 | -10.55744 | -43.69186 | 35056 ft | 493 kts | 35° |
| 2026-05-04 03:28 | -10.50261 | -43.64973 | 35057 ft | 494 kts | 36° |
| 2026-05-04 03:29 | -10.44761 | -43.60747 | 35053 ft | 494 kts | 35° |
| 2026-05-04 03:29 | -10.39298 | -43.56553 | 35054 ft | 493 kts | 35° |
| 2026-05-04 03:30 | -10.33801 | -43.52334 | 35053 ft | 493 kts | 35° |
| 2026-05-04 03:30 | -10.28299 | -43.48112 | 35053 ft | 494 kts | 35° |
| 2026-05-04 03:31 | -10.22837 | -43.43922 | 35054 ft | 493 kts | 35° |
| 2026-05-04 03:31 | -10.17346 | -43.39712 | 35054 ft | 493 kts | 35° |
| 2026-05-04 03:32 | -10.11865 | -43.35513 | 35052 ft | 493 kts | 35° |
| 2026-05-04 03:32 | -10.06411 | -43.31337 | 35053 ft | 493 kts | 35° |
| 2026-05-04 03:33 | -10.00948 | -43.27151 | 35052 ft | 493 kts | 35° |
| 2026-05-04 03:33 | -9.95460 | -43.22950 | 35054 ft | 493 kts | 35° |
| 2026-05-04 03:34 | -9.89998 | -43.18769 | 35053 ft | 492 kts | 35° |
| 2026-05-04 03:34 | -9.84528 | -43.14588 | 35052 ft | 491 kts | 35° |
| 2026-05-04 03:35 | -9.79063 | -43.10407 | 35055 ft | 491 kts | 35° |
| 2026-05-04 03:35 | -9.73607 | -43.06240 | 35055 ft | 490 kts | 34° |
| 2026-05-04 03:36 | -9.68157 | -43.02078 | 35055 ft | 489 kts | 35° |
| 2026-05-04 03:36 | -9.62713 | -42.97922 | 35057 ft | 489 kts | 35° |
| 2026-05-04 03:37 | -9.57281 | -42.93775 | 35059 ft | 489 kts | 35° |
| 2026-05-04 03:37 | -9.51859 | -42.89637 | 35059 ft | 488 kts | 34° |
| 2026-05-04 03:38 | -9.46426 | -42.85495 | 35058 ft | 488 kts | 34° |
| 2026-05-04 03:38 | -9.41004 | -42.81361 | 35057 ft | 487 kts | 34° |
| 2026-05-04 03:39 | -9.35586 | -42.77234 | 35057 ft | 486 kts | 35° |
| 2026-05-04 03:39 | -9.30187 | -42.73122 | 35056 ft | 487 kts | 35° |
| 2026-05-04 03:40 | -9.24776 | -42.69002 | 35054 ft | 485 kts | 35° |
| 2026-05-04 03:40 | -9.19377 | -42.64891 | 35053 ft | 484 kts | 35° |
| 2026-05-04 03:41 | -9.14015 | -42.60811 | 35050 ft | 483 kts | 35° |
| 2026-05-04 03:41 | -9.08609 | -42.56699 | 35049 ft | 483 kts | 35° |
| 2026-05-04 03:42 | -9.03248 | -42.52623 | 35039 ft | 483 kts | 34° |
| 2026-05-04 03:42 | -8.97875 | -42.48539 | 35033 ft | 483 kts | 35° |
| 2026-05-04 03:43 | -8.92498 | -42.44455 | 35030 ft | 482 kts | 34° |
| 2026-05-04 03:43 | -8.87138 | -42.40390 | 35031 ft | 482 kts | 35° |
| 2026-05-04 03:44 | -8.81755 | -42.36308 | 35033 ft | 481 kts | 35° |
| 2026-05-04 03:44 | -8.76425 | -42.32265 | 35029 ft | 480 kts | 34° |
| 2026-05-04 03:45 | -8.71075 | -42.28208 | 35031 ft | 481 kts | 34° |
| 2026-05-04 03:45 | -8.65699 | -42.24133 | 35025 ft | 481 kts | 34° |
| 2026-05-04 03:46 | -8.60347 | -42.20078 | 35020 ft | 481 kts | 34° |
| 2026-05-04 03:46 | -8.54982 | -42.16016 | 35021 ft | 480 kts | 34° |
| 2026-05-04 03:47 | -8.49660 | -42.11986 | 35026 ft | 479 kts | 34° |
| 2026-05-04 03:47 | -8.44319 | -42.07944 | 35026 ft | 479 kts | 35° |
| 2026-05-04 03:48 | -8.38972 | -42.03897 | 35020 ft | 479 kts | 35° |
| 2026-05-04 03:48 | -8.33649 | -41.99872 | 35018 ft | 479 kts | 35° |
| 2026-05-04 03:49 | -8.28314 | -41.95839 | 35018 ft | 479 kts | 34° |
| 2026-05-04 03:49 | -8.22983 | -41.91812 | 35014 ft | 479 kts | 34° |
| 2026-05-04 03:50 | -8.17615 | -41.87757 | 35015 ft | 479 kts | 35° |
| 2026-05-04 03:50 | -8.12280 | -41.83727 | 35014 ft | 478 kts | 35° |
| 2026-05-04 03:51 | -8.06952 | -41.79704 | 35015 ft | 478 kts | 35° |
| 2026-05-04 03:51 | -8.02523 | -41.76362 | 35013 ft | 478 kts | 35° |
| 2026-05-04 03:52 | -7.97206 | -41.72349 | 35017 ft | 478 kts | 35° |
| 2026-05-04 03:52 | -7.90990 | -41.67661 | 35021 ft | 479 kts | 35° |
| 2026-05-04 03:53 | -7.85657 | -41.63638 | 35020 ft | 479 kts | 35° |
| 2026-05-04 03:53 | -7.80281 | -41.59587 | 35021 ft | 479 kts | 35° |
| 2026-05-04 03:54 | -7.75849 | -41.56246 | 35021 ft | 479 kts | 35° |
| 2026-05-04 03:54 | -7.69634 | -41.51563 | 35018 ft | 478 kts | 35° |
| 2026-05-04 03:55 | -7.64302 | -41.47549 | 35018 ft | 478 kts | 35° |
| 2026-05-04 03:55 | -7.58952 | -41.43523 | 35019 ft | 478 kts | 35° |
| 2026-05-04 03:56 | -7.53607 | -41.39500 | 35020 ft | 478 kts | 35° |
| 2026-05-04 03:56 | -7.48299 | -41.35506 | 35023 ft | 478 kts | 35° |
| 2026-05-04 03:57 | -7.43851 | -41.32160 | 35024 ft | 477 kts | 35° |
| 2026-05-04 03:57 | -7.38533 | -41.28162 | 35025 ft | 476 kts | 35° |
| 2026-05-04 03:58 | -7.30553 | -41.22163 | 35023 ft | 476 kts | 35° |
| 2026-05-04 03:58 | -7.25408 | -41.18299 | 35019 ft | 475 kts | 35° |
| 2026-05-04 03:59 | -7.19213 | -41.13645 | 35017 ft | 475 kts | 35° |
| 2026-05-04 03:59 | -7.14792 | -41.10326 | 35018 ft | 475 kts | 35° |
| 2026-05-04 04:00 | -7.08624 | -41.05696 | 35017 ft | 473 kts | 34° |
| 2026-05-04 04:00 | -7.04223 | -41.02395 | 35019 ft | 473 kts | 35° |
| 2026-05-04 04:01 | -6.98078 | -40.97784 | 35017 ft | 473 kts | 34° |
| 2026-05-04 04:01 | -6.93680 | -40.94484 | 35025 ft | 472 kts | 34° |
| 2026-05-04 04:02 | -6.87544 | -40.89884 | 35037 ft | 472 kts | 35° |
| 2026-05-04 04:02 | -6.82279 | -40.85937 | 35043 ft | 472 kts | 34° |
| 2026-05-04 04:03 | -6.77876 | -40.82636 | 35051 ft | 472 kts | 35° |
| 2026-05-04 04:03 | -6.71731 | -40.78032 | 35058 ft | 472 kts | 35° |
| 2026-05-04 04:04 | -6.67315 | -40.74725 | 35060 ft | 472 kts | 34° |
| 2026-05-04 04:04 | -6.62045 | -40.70782 | 35064 ft | 472 kts | 35° |
| 2026-05-04 04:05 | -6.56766 | -40.66829 | 35062 ft | 472 kts | 35° |
| 2026-05-04 04:05 | -6.50611 | -40.62220 | 35062 ft | 472 kts | 35° |
| 2026-05-04 04:06 | -6.46213 | -40.58930 | 35060 ft | 472 kts | 34° |
| 2026-05-04 04:06 | -6.40933 | -40.54980 | 35054 ft | 472 kts | 35° |
| 2026-05-04 04:07 | -6.35671 | -40.51044 | 35053 ft | 472 kts | 35° |
| 2026-05-04 04:07 | -6.30396 | -40.47098 | 35051 ft | 472 kts | 35° |
| 2026-05-04 04:08 | -6.25113 | -40.43150 | 35047 ft | 472 kts | 35° |
| 2026-05-04 04:08 | -6.19843 | -40.39210 | 35041 ft | 472 kts | 35° |
| 2026-05-04 04:09 | -6.14569 | -40.35268 | 35039 ft | 473 kts | 35° |
| 2026-05-04 04:09 | -6.09275 | -40.31312 | 35035 ft | 473 kts | 35° |
| 2026-05-04 04:10 | -6.03998 | -40.27369 | 35029 ft | 473 kts | 35° |
| 2026-05-04 04:10 | -5.98726 | -40.23430 | 35029 ft | 473 kts | 35° |
| 2026-05-04 04:11 | -5.93440 | -40.19484 | 35032 ft | 473 kts | 35° |
| 2026-05-04 04:11 | -5.88147 | -40.15535 | 35038 ft | 472 kts | 35° |
| 2026-05-04 04:12 | -5.82866 | -40.11595 | 35040 ft | 472 kts | 35° |
| 2026-05-04 04:12 | -5.77587 | -40.07660 | 35043 ft | 473 kts | 35° |
| 2026-05-04 04:13 | -5.72298 | -40.03714 | 35049 ft | 472 kts | 35° |
| 2026-05-04 04:13 | -5.67005 | -39.99770 | 35051 ft | 472 kts | 35° |
| 2026-05-04 04:14 | -5.61729 | -39.95839 | 35047 ft | 471 kts | 35° |
| 2026-05-04 04:14 | -5.56469 | -39.91919 | 35049 ft | 471 kts | 35° |
| 2026-05-04 04:15 | -5.51211 | -39.88004 | 35052 ft | 471 kts | 35° |
| 2026-05-04 04:15 | -5.45907 | -39.84054 | 35055 ft | 472 kts | 35° |
| 2026-05-04 04:16 | -5.40645 | -39.80136 | 35055 ft | 472 kts | 35° |
| 2026-05-04 04:16 | -5.35366 | -39.76204 | 35053 ft | 472 kts | 35° |
| 2026-05-04 04:17 | -5.30094 | -39.72277 | 35046 ft | 472 kts | 35° |
| 2026-05-04 04:17 | -5.24825 | -39.68355 | 35038 ft | 471 kts | 35° |
| 2026-05-04 04:18 | -5.19539 | -39.64421 | 35026 ft | 472 kts | 35° |
| 2026-05-04 04:18 | -5.14284 | -39.60513 | 35016 ft | 472 kts | 35° |
| 2026-05-04 04:19 | -5.08992 | -39.56577 | 35007 ft | 472 kts | 35° |
| 2026-05-04 04:19 | -5.03715 | -39.52655 | 35003 ft | 472 kts | 35° |
| 2026-05-04 04:20 | -4.98432 | -39.48727 | 35005 ft | 472 kts | 35° |
| 2026-05-04 04:20 | -4.93126 | -39.44785 | 35010 ft | 472 kts | 35° |
| 2026-05-04 04:21 | -4.87864 | -39.40875 | 35009 ft | 472 kts | 35° |
| 2026-05-04 04:21 | -4.82579 | -39.36949 | 34988 ft | 473 kts | 35° |
| 2026-05-04 04:22 | -4.77267 | -39.33003 | 34976 ft | 474 kts | 35° |
| 2026-05-04 04:22 | -4.71978 | -39.29077 | 34988 ft | 474 kts | 35° |
| 2026-05-04 04:23 | -4.66680 | -39.25145 | 34988 ft | 473 kts | 35° |
| 2026-05-04 04:23 | -4.61387 | -39.21216 | 34986 ft | 473 kts | 35° |
| 2026-05-04 04:24 | -4.56082 | -39.17278 | 34982 ft | 473 kts | 35° |
| 2026-05-04 04:24 | -4.50799 | -39.13357 | 34986 ft | 472 kts | 35° |
| 2026-05-04 04:25 | -4.45507 | -39.09423 | 34995 ft | 473 kts | 35° |
| 2026-05-04 04:25 | -4.40233 | -39.05502 | 35003 ft | 473 kts | 36° |
| 2026-05-04 04:26 | -4.35050 | -39.01363 | 35018 ft | 473 kts | 38° |
| 2026-05-04 04:26 | -4.29910 | -38.97214 | 35028 ft | 473 kts | 38° |
| 2026-05-04 04:27 | -4.24786 | -38.93079 | 35024 ft | 472 kts | 38° |
| 2026-05-04 04:27 | -4.19689 | -38.88967 | 35009 ft | 472 kts | 38° |
| 2026-05-04 04:28 | -4.14552 | -38.84826 | 34989 ft | 472 kts | 38° |
| 2026-05-04 04:28 | -4.09436 | -38.80705 | 34976 ft | 472 kts | 38° |
| 2026-05-04 04:29 | -4.04315 | -38.76582 | 34966 ft | 472 kts | 38° |
| 2026-05-04 04:29 | -3.99202 | -38.72464 | 34961 ft | 472 kts | 38° |
| 2026-05-04 04:30 | -3.94049 | -38.68312 | 34959 ft | 472 kts | 38° |
| 2026-05-04 04:30 | -3.88925 | -38.64182 | 34963 ft | 472 kts | 38° |
| 2026-05-04 04:31 | -3.83828 | -38.60042 | 34956 ft | 472 kts | 40° |
| 2026-05-04 04:31 | -3.79029 | -38.55513 | 34953 ft | 472 kts | 46° |
| 2026-05-04 04:32 | -3.74739 | -38.50538 | 34948 ft | 472 kts | 51° |
| 2026-05-04 04:32 | -3.70975 | -38.45165 | 34945 ft | 473 kts | 56° |
| 2026-05-04 04:33 | -3.67415 | -38.39655 | 34942 ft | 473 kts | 56° |
| 2026-05-04 04:33 | -3.63841 | -38.34128 | 34936 ft | 473 kts | 56° |
| 2026-05-04 04:34 | -3.60262 | -38.28606 | 34930 ft | 472 kts | 56° |
| 2026-05-04 04:34 | -3.56671 | -38.23072 | 34928 ft | 472 kts | 56° |
| 2026-05-04 04:35 | -3.53112 | -38.17588 | 34929 ft | 472 kts | 56° |
| 2026-05-04 04:35 | -3.49533 | -38.12077 | 34930 ft | 472 kts | 56° |
| 2026-05-04 04:36 | -3.45959 | -38.06571 | 34930 ft | 472 kts | 56° |
| 2026-05-04 04:36 | -3.42391 | -38.01074 | 34929 ft | 472 kts | 56° |
| 2026-05-04 04:37 | -3.35208 | -37.90107 | 34939 ft | 470 kts | 56° |
| 2026-05-04 04:38 | -3.31630 | -37.84669 | 34942 ft | 470 kts | 56° |
| 2026-05-04 04:38 | -3.28040 | -37.79205 | 34938 ft | 470 kts | 56° |
| 2026-05-04 04:39 | -3.24448 | -37.73743 | 34939 ft | 471 kts | 56° |
| 2026-05-04 04:39 | -3.20833 | -37.68250 | 34939 ft | 472 kts | 57° |
| 2026-05-04 04:40 | -3.17212 | -37.62747 | 34942 ft | 472 kts | 57° |
| 2026-05-04 04:40 | -3.13611 | -37.57270 | 34939 ft | 471 kts | 57° |
| 2026-05-04 04:41 | -3.10022 | -37.51813 | 34939 ft | 471 kts | 57° |
| 2026-05-04 04:41 | -3.06398 | -37.46305 | 34941 ft | 472 kts | 57° |
| 2026-05-04 04:42 | -3.02784 | -37.40811 | 34939 ft | 473 kts | 57° |
| 2026-05-04 04:42 | -2.99189 | -37.35348 | 34936 ft | 473 kts | 57° |
| 2026-05-04 04:43 | -2.95572 | -37.29858 | 34927 ft | 473 kts | 57° |
| 2026-05-04 04:43 | -2.91936 | -37.24336 | 34918 ft | 474 kts | 57° |
| 2026-05-04 04:44 | -2.88319 | -37.18843 | 34919 ft | 474 kts | 57° |
| 2026-05-04 04:44 | -2.84702 | -37.13347 | 34915 ft | 474 kts | 57° |
| 2026-05-04 04:45 | -2.81076 | -37.07839 | 34916 ft | 473 kts | 57° |
| 2026-05-04 04:47 | -2.68393 | -36.88592 | 34917 ft | 475 kts | 57° |
| 2026-05-04 04:47 | -2.64766 | -36.83089 | 34916 ft | 475 kts | 57° |
| 2026-05-04 04:48 | -2.61127 | -36.77569 | 34916 ft | 475 kts | 57° |
| 2026-05-04 04:49 | -2.52025 | -36.63763 | 34917 ft | 475 kts | 58° |
| 2026-05-04 04:49 | -2.48392 | -36.58254 | 34917 ft | 475 kts | 58° |
| 2026-05-04 04:50 | -2.44750 | -36.52730 | 34917 ft | 475 kts | 57° |
| 2026-05-04 04:50 | -2.41119 | -36.47227 | 34918 ft | 476 kts | 57° |
| 2026-05-04 04:51 | -2.37464 | -36.41689 | 34917 ft | 477 kts | 58° |
| 2026-05-04 04:51 | -2.33807 | -36.36145 | 34917 ft | 477 kts | 58° |
| 2026-05-04 04:52 | -2.30141 | -36.30587 | 34917 ft | 478 kts | 58° |
| 2026-05-04 04:52 | -2.26494 | -36.25061 | 34917 ft | 478 kts | 57° |
| 2026-05-04 04:53 | -2.22831 | -36.19512 | 34917 ft | 478 kts | 58° |
| 2026-05-04 04:53 | -2.19159 | -36.13945 | 34918 ft | 478 kts | 58° |
| 2026-05-04 04:54 | -2.15506 | -36.08412 | 34917 ft | 478 kts | 58° |
| 2026-05-04 04:54 | -2.11825 | -36.02837 | 34918 ft | 479 kts | 58° |
| 2026-05-04 04:55 | -2.08147 | -35.97263 | 34918 ft | 480 kts | 58° |
| 2026-05-04 04:55 | -2.04458 | -35.91680 | 34919 ft | 479 kts | 58° |
| 2026-05-04 04:56 | -2.00780 | -35.86112 | 34917 ft | 479 kts | 58° |
| 2026-05-04 04:56 | -1.97108 | -35.80553 | 34916 ft | 479 kts | 58° |
| 2026-05-04 04:57 | -1.93436 | -35.74990 | 34917 ft | 479 kts | 58° |
| 2026-05-04 04:57 | -1.89771 | -35.69442 | 34916 ft | 479 kts | 58° |
| 2026-05-04 04:58 | -1.86118 | -35.63910 | 34916 ft | 479 kts | 58° |
| 2026-05-04 04:58 | -1.82449 | -35.58358 | 34917 ft | 479 kts | 58° |
| 2026-05-04 04:59 | -1.78671 | -35.52857 | 34916 ft | 480 kts | 53° |
| 2026-05-04 04:59 | -1.74234 | -35.47880 | 34916 ft | 481 kts | 45° |
| 2026-05-04 05:00 | -1.69112 | -35.43591 | 34917 ft | 482 kts | 37° |
| 2026-05-04 05:01 | -1.60410 | -35.38408 | 34916 ft | 483 kts | 30° |
| 2026-05-04 05:01 | -1.54500 | -35.35187 | 34916 ft | 484 kts | 30° |
| 2026-05-04 05:02 | -1.48596 | -35.31956 | 34913 ft | 484 kts | 30° |
| 2026-05-04 05:02 | -1.42694 | -35.28717 | 34909 ft | 484 kts | 30° |
| 2026-05-04 05:03 | -1.36759 | -35.25458 | 34916 ft | 484 kts | 30° |
| 2026-05-04 05:04 | -1.24928 | -35.18960 | 34924 ft | 484 kts | 30° |
| 2026-05-04 05:04 | -1.19032 | -35.15723 | 34917 ft | 484 kts | 30° |
| 2026-05-04 05:06 | -0.95349 | -35.02713 | 34915 ft | 485 kts | 30° |
| 2026-05-04 05:07 | -0.89407 | -34.99450 | 34913 ft | 485 kts | 30° |
| 2026-05-04 05:07 | -0.83471 | -34.96188 | 34914 ft | 485 kts | 30° |
| 2026-05-04 05:09 | -0.56767 | -34.81524 | 34913 ft | 486 kts | 30° |
| 2026-05-04 05:10 | -0.50842 | -34.78271 | 34915 ft | 487 kts | 30° |
| 2026-05-04 05:10 | -0.44890 | -34.75003 | 34915 ft | 487 kts | 30° |
| 2026-05-04 05:11 | -0.38931 | -34.71732 | 34915 ft | 487 kts | 30° |
| 2026-05-04 05:11 | -0.32982 | -34.68465 | 34912 ft | 487 kts | 30° |
| 2026-05-04 05:12 | -0.27028 | -34.65192 | 34916 ft | 487 kts | 30° |
| 2026-05-04 05:12 | -0.21060 | -34.61915 | 34912 ft | 487 kts | 30° |
| 2026-05-04 05:13 | -0.15097 | -34.58641 | 34914 ft | 488 kts | 30° |
| 2026-05-04 05:13 | -0.09156 | -34.55380 | 34916 ft | 488 kts | 30° |
| 2026-05-04 05:14 | -0.03210 | -34.52115 | 34915 ft | 488 kts | 30° |
| 2026-05-04 05:14 | 0.02776 | -34.48828 | 34916 ft | 488 kts | 30° |
| 2026-05-04 05:15 | 0.08726 | -34.45561 | 34919 ft | 488 kts | 30° |
| 2026-05-04 05:15 | 0.14706 | -34.42278 | 34918 ft | 489 kts | 30° |
| 2026-05-04 05:16 | 0.20696 | -34.38989 | 34920 ft | 489 kts | 30° |
| 2026-05-04 05:16 | 0.26690 | -34.35699 | 34917 ft | 490 kts | 30° |
| 2026-05-04 05:17 | 0.32656 | -34.32424 | 34917 ft | 490 kts | 30° |
| 2026-05-04 05:17 | 0.38671 | -34.29122 | 34919 ft | 490 kts | 30° |
| 2026-05-04 05:18 | 0.44642 | -34.25843 | 34919 ft | 490 kts | 30° |
| 2026-05-04 05:18 | 0.50653 | -34.22541 | 34919 ft | 491 kts | 30° |
| 2026-05-04 05:19 | 0.56632 | -34.19257 | 34918 ft | 491 kts | 30° |
| 2026-05-04 05:19 | 0.62641 | -34.15957 | 34916 ft | 491 kts | 30° |
| 2026-05-04 05:20 | 0.68633 | -34.12669 | 34919 ft | 491 kts | 30° |
| 2026-05-04 05:20 | 0.74660 | -34.09361 | 34915 ft | 491 kts | 30° |
| 2026-05-04 05:21 | 0.80675 | -34.06060 | 34909 ft | 492 kts | 30° |
| 2026-05-04 05:21 | 0.86677 | -34.02763 | 34905 ft | 492 kts | 30° |
| 2026-05-04 05:22 | 0.92676 | -33.99468 | 34901 ft | 492 kts | 30° |
| 2026-05-04 05:22 | 0.98711 | -33.96153 | 34896 ft | 492 kts | 30° |
| 2026-05-04 05:23 | 1.04702 | -33.92865 | 34899 ft | 491 kts | 30° |
| 2026-05-04 05:23 | 1.10717 | -33.89562 | 34900 ft | 492 kts | 30° |
| 2026-05-04 05:24 | 1.16728 | -33.86262 | 34903 ft | 493 kts | 29° |
| 2026-05-04 05:24 | 1.22757 | -33.82952 | 34903 ft | 493 kts | 30° |
| 2026-05-04 05:25 | 1.28755 | -33.79659 | 34906 ft | 493 kts | 30° |
| 2026-05-04 05:25 | 1.34814 | -33.76333 | 34910 ft | 494 kts | 30° |
| 2026-05-04 05:26 | 1.40824 | -33.73031 | 34917 ft | 494 kts | 30° |
| 2026-05-04 05:26 | 1.46876 | -33.69707 | 34923 ft | 494 kts | 30° |
| 2026-05-04 05:28 | 1.70994 | -33.56461 | 34930 ft | 494 kts | 29° |
| 2026-05-04 05:29 | 1.77028 | -33.53145 | 34934 ft | 495 kts | 29° |
| 2026-05-04 05:29 | 1.83067 | -33.49826 | 34932 ft | 494 kts | 29° |
| 2026-05-04 05:31 | 2.07292 | -33.36513 | 34919 ft | 496 kts | 29° |
| 2026-05-04 05:32 | 2.13313 | -33.33204 | 34915 ft | 495 kts | 29° |
| 2026-05-04 05:33 | 2.22414 | -33.28200 | 34920 ft | 496 kts | 29° |
| 2026-05-04 05:33 | 2.28467 | -33.24873 | 34923 ft | 496 kts | 29° |
| 2026-05-04 05:34 | 2.34516 | -33.21548 | 34923 ft | 496 kts | 29° |
| 2026-05-04 05:34 | 2.40540 | -33.18236 | 34923 ft | 496 kts | 29° |
| 2026-05-04 05:35 | 2.46624 | -33.14890 | 34925 ft | 497 kts | 29° |
| 2026-05-04 05:35 | 2.52692 | -33.11552 | 34927 ft | 496 kts | 29° |
| 2026-05-04 05:36 | 2.58743 | -33.08226 | 34930 ft | 497 kts | 29° |
| 2026-05-04 05:36 | 2.64781 | -33.04901 | 34931 ft | 497 kts | 29° |
| 2026-05-04 05:37 | 2.70872 | -33.01548 | 34932 ft | 497 kts | 29° |
| 2026-05-04 05:37 | 2.76938 | -32.98210 | 34933 ft | 497 kts | 29° |
| 2026-05-04 05:38 | 2.86031 | -32.93206 | 34924 ft | 497 kts | 29° |
| 2026-05-04 05:38 | 2.92119 | -32.89856 | 34918 ft | 497 kts | 29° |
| 2026-05-04 05:39 | 3.01226 | -32.84844 | 34917 ft | 497 kts | 29° |
| 2026-05-04 05:40 | 3.10331 | -32.79831 | 34917 ft | 498 kts | 29° |
| 2026-05-04 05:40 | 3.16390 | -32.76495 | 34917 ft | 498 kts | 29° |
| 2026-05-04 05:41 | 3.22479 | -32.73140 | 34917 ft | 499 kts | 29° |
| 2026-05-04 05:41 | 3.28594 | -32.69773 | 34917 ft | 499 kts | 29° |
| 2026-05-04 05:42 | 3.34659 | -32.66433 | 34917 ft | 499 kts | 28° |
| 2026-05-04 05:42 | 3.40755 | -32.63076 | 34917 ft | 499 kts | 28° |
| 2026-05-04 05:43 | 3.46842 | -32.59720 | 34917 ft | 499 kts | 28° |
| 2026-05-04 05:45 | 3.71242 | -32.46265 | 34917 ft | 500 kts | 28° |
| 2026-05-04 05:47 | 3.95687 | -32.32783 | 34928 ft | 501 kts | 28° |
| 2026-05-04 05:47 | 4.01809 | -32.29405 | 34935 ft | 501 kts | 28° |
| 2026-05-04 05:48 | 4.07907 | -32.26040 | 34936 ft | 501 kts | 28° |
| 2026-05-04 05:48 | 4.14043 | -32.22654 | 34936 ft | 501 kts | 28° |
| 2026-05-04 05:49 | 4.20145 | -32.19283 | 34937 ft | 502 kts | 28° |
| 2026-05-04 05:49 | 4.26267 | -32.15902 | 34936 ft | 501 kts | 28° |
| 2026-05-04 05:51 | 4.50685 | -32.02418 | 34937 ft | 499 kts | 28° |
| 2026-05-04 05:52 | 4.56798 | -31.99041 | 34938 ft | 500 kts | 28° |
| 2026-05-04 05:52 | 4.62880 | -31.95678 | 34936 ft | 501 kts | 28° |
| 2026-05-04 05:54 | 4.87327 | -31.82155 | 34938 ft | 500 kts | 28° |
| 2026-05-04 05:55 | 4.93411 | -31.78791 | 34937 ft | 499 kts | 28° |
| 2026-05-04 05:55 | 4.99528 | -31.75407 | 34939 ft | 499 kts | 28° |
| 2026-05-04 05:56 | 5.05586 | -31.72052 | 34940 ft | 500 kts | 28° |
| 2026-05-04 05:56 | 5.11698 | -31.68669 | 34938 ft | 500 kts | 28° |
| 2026-05-04 05:57 | 5.17817 | -31.65280 | 34939 ft | 500 kts | 28° |
| 2026-05-04 05:57 | 5.23908 | -31.61898 | 34940 ft | 501 kts | 28° |
| 2026-05-04 05:58 | 5.30012 | -31.58463 | 34939 ft | 501 kts | 28° |
| 2026-05-04 05:58 | 5.36062 | -31.55060 | 34939 ft | 500 kts | 28° |
| 2026-05-04 05:59 | 5.42174 | -31.51624 | 34938 ft | 500 kts | 28° |
| 2026-05-04 05:59 | 5.48223 | -31.48223 | 34938 ft | 500 kts | 28° |
| 2026-05-04 06:00 | 5.54338 | -31.44783 | 34935 ft | 501 kts | 28° |
| 2026-05-04 06:00 | 5.60423 | -31.41363 | 34932 ft | 501 kts | 28° |
| 2026-05-04 06:01 | 5.66498 | -31.37950 | 34931 ft | 502 kts | 28° |
| 2026-05-04 06:03 | 5.90872 | -31.24232 | 34933 ft | 503 kts | 28° |
| 2026-05-04 06:05 | 6.18347 | -31.08749 | 34938 ft | 503 kts | 28° |
| 2026-05-04 06:06 | 6.24467 | -31.05298 | 34937 ft | 503 kts | 28° |
| 2026-05-04 06:06 | 6.30559 | -31.01862 | 34938 ft | 503 kts | 28° |
| 2026-05-04 06:07 | 6.36684 | -30.98406 | 34937 ft | 502 kts | 28° |
| 2026-05-04 06:07 | 6.42773 | -30.94968 | 34938 ft | 502 kts | 28° |
| 2026-05-04 06:08 | 6.48867 | -30.91528 | 34937 ft | 502 kts | 28° |
| 2026-05-04 06:08 | 6.54987 | -30.88071 | 34937 ft | 502 kts | 28° |
| 2026-05-04 06:09 | 6.61080 | -30.84630 | 34936 ft | 502 kts | 28° |
| 2026-05-04 06:11 | 6.85400 | -30.70883 | 34938 ft | 501 kts | 28° |
| 2026-05-04 06:13 | 7.09720 | -30.57118 | 34929 ft | 502 kts | 28° |
| 2026-05-04 06:14 | 7.31018 | -30.45050 | 34930 ft | 501 kts | 28° |
| 2026-05-04 06:15 | 7.37091 | -30.41608 | 34931 ft | 502 kts | 28° |
| 2026-05-04 06:15 | 7.43185 | -30.38152 | 34931 ft | 503 kts | 28° |
| 2026-05-04 06:16 | 7.49309 | -30.34675 | 34930 ft | 502 kts | 27° |
| 2026-05-04 06:16 | 7.55381 | -30.31228 | 34931 ft | 503 kts | 28° |
| 2026-05-04 06:17 | 7.61491 | -30.27759 | 34933 ft | 502 kts | 27° |
| 2026-05-04 06:17 | 7.67571 | -30.24306 | 34932 ft | 502 kts | 27° |
| 2026-05-04 06:18 | 7.73686 | -30.20831 | 34933 ft | 502 kts | 27° |
| 2026-05-04 06:20 | 7.98096 | -30.06954 | 34938 ft | 503 kts | 27° |
| 2026-05-04 06:21 | 8.13367 | -29.98259 | 34937 ft | 503 kts | 27° |
| 2026-05-04 06:22 | 8.19455 | -29.94790 | 34938 ft | 503 kts | 27° |
| 2026-05-04 06:25 | 8.62228 | -29.70391 | 34940 ft | 504 kts | 26° |
| 2026-05-04 06:26 | 8.68351 | -29.66897 | 34939 ft | 505 kts | 26° |
| 2026-05-04 06:26 | 8.74471 | -29.63396 | 34938 ft | 505 kts | 26° |
| 2026-05-04 06:27 | 8.89790 | -29.54639 | 34941 ft | 505 kts | 26° |
| 2026-05-04 06:28 | 8.95930 | -29.51125 | 35003 ft | 509 kts | 26° |
| 2026-05-04 06:28 | 8.99038 | -29.49346 | 35303 ft | 510 kts | 26° |
| 2026-05-04 06:28 | 9.02127 | -29.47576 | 35711 ft | 508 kts | 26° |
| 2026-05-04 06:29 | 9.05213 | -29.45808 | 36091 ft | 506 kts | 25° |
| 2026-05-04 06:29 | 9.07999 | -29.44210 | 36385 ft | 505 kts | 25° |
| 2026-05-04 06:29 | 9.11049 | -29.42461 | 36642 ft | 505 kts | 25° |
| 2026-05-04 06:29 | 9.14110 | -29.40710 | 36866 ft | 506 kts | 25° |
| 2026-05-04 06:30 | 9.20247 | -29.37194 | 36942 ft | 506 kts | 25° |
| 2026-05-04 06:30 | 9.26374 | -29.33683 | 36945 ft | 507 kts | 25° |
| 2026-05-04 06:31 | 9.32556 | -29.30140 | 36947 ft | 508 kts | 25° |
| 2026-05-04 06:31 | 9.38685 | -29.26621 | 36951 ft | 508 kts | 25° |
| 2026-05-04 06:33 | 9.63310 | -29.12478 | 36949 ft | 508 kts | 25° |
| 2026-05-04 06:34 | 9.69463 | -29.08940 | 36952 ft | 508 kts | 25° |
| 2026-05-04 06:34 | 9.75622 | -29.05394 | 36951 ft | 509 kts | 25° |
| 2026-05-04 06:36 | 10.00307 | -28.91181 | 36960 ft | 511 kts | 25° |
| 2026-05-04 06:37 | 10.06487 | -28.87617 | 36960 ft | 511 kts | 25° |
| 2026-05-04 06:37 | 10.12660 | -28.84054 | 36959 ft | 510 kts | 25° |
| 2026-05-04 06:38 | 10.18856 | -28.80477 | 36956 ft | 510 kts | 25° |
| 2026-05-04 06:40 | 10.43590 | -28.66187 | 36961 ft | 513 kts | 25° |
| 2026-05-04 06:40 | 10.49817 | -28.62586 | 36962 ft | 513 kts | 25° |
| 2026-05-04 06:41 | 10.55989 | -28.59012 | 36960 ft | 512 kts | 25° |
| 2026-05-04 06:41 | 10.62225 | -28.55402 | 36961 ft | 513 kts | 25° |
| 2026-05-04 06:42 | 10.68412 | -28.51817 | 36963 ft | 513 kts | 24° |
| 2026-05-04 06:44 | 10.93232 | -28.37425 | 36962 ft | 514 kts | 25° |
| 2026-05-04 06:44 | 10.99455 | -28.33808 | 36955 ft | 513 kts | 25° |
| 2026-05-04 06:45 | 11.05676 | -28.30191 | 36962 ft | 512 kts | 25° |
| 2026-05-04 06:45 | 11.11851 | -28.26601 | 36957 ft | 512 kts | 24° |
| 2026-05-04 06:46 | 11.18056 | -28.22995 | 36952 ft | 512 kts | 25° |
| 2026-05-04 06:46 | 11.24235 | -28.19399 | 36946 ft | 513 kts | 24° |
| 2026-05-04 06:48 | 11.49130 | -28.04892 | 36943 ft | 515 kts | 25° |
| 2026-05-04 06:50 | 11.73986 | -27.90381 | 36944 ft | 514 kts | 24° |
| 2026-05-04 06:51 | 11.80210 | -27.86744 | 36952 ft | 514 kts | 24° |
| 2026-05-04 06:51 | 11.86448 | -27.83098 | 36955 ft | 515 kts | 25° |
| 2026-05-04 06:52 | 11.92663 | -27.79460 | 36957 ft | 515 kts | 24° |
| 2026-05-04 06:52 | 11.98862 | -27.75831 | 36958 ft | 515 kts | 25° |
| 2026-05-04 06:53 | 12.05071 | -27.72192 | 36955 ft | 515 kts | 25° |
| 2026-05-04 06:53 | 12.11291 | -27.68547 | 36953 ft | 515 kts | 24° |
| 2026-05-04 06:54 | 12.17524 | -27.64896 | 36954 ft | 517 kts | 25° |
| 2026-05-04 06:54 | 12.23783 | -27.61220 | 36953 ft | 516 kts | 24° |
| 2026-05-04 06:55 | 12.30008 | -27.57565 | 36952 ft | 516 kts | 24° |
| 2026-05-04 06:55 | 12.36251 | -27.53901 | 36951 ft | 517 kts | 24° |
| 2026-05-04 06:57 | 12.61177 | -27.39239 | 36948 ft | 517 kts | 24° |
| 2026-05-04 06:58 | 12.67423 | -27.35557 | 36949 ft | 517 kts | 24° |
| 2026-05-04 06:58 | 12.73705 | -27.31856 | 36949 ft | 518 kts | 25° |
| 2026-05-04 06:59 | 12.79949 | -27.28173 | 36950 ft | 518 kts | 25° |
| 2026-05-04 06:59 | 12.86197 | -27.24489 | 36947 ft | 520 kts | 25° |
| 2026-05-04 07:01 | 13.11285 | -27.09661 | 36949 ft | 519 kts | 24° |
| 2026-05-04 07:02 | 13.17541 | -27.05960 | 36956 ft | 520 kts | 25° |
| 2026-05-04 07:02 | 13.23819 | -27.02245 | 36962 ft | 520 kts | 25° |
| 2026-05-04 07:03 | 13.30066 | -26.98541 | 36963 ft | 520 kts | 25° |
| 2026-05-04 07:03 | 13.36337 | -26.94827 | 36965 ft | 521 kts | 25° |
| 2026-05-04 07:04 | 13.42633 | -26.91093 | 36964 ft | 521 kts | 25° |
| 2026-05-04 07:04 | 13.48910 | -26.87368 | 36965 ft | 522 kts | 25° |
| 2026-05-04 07:05 | 13.55193 | -26.83635 | 36963 ft | 521 kts | 24° |
| 2026-05-04 07:05 | 13.61477 | -26.79903 | 36959 ft | 522 kts | 24° |
| 2026-05-04 07:06 | 13.70928 | -26.74278 | 36962 ft | 522 kts | 25° |
| 2026-05-04 07:07 | 13.77198 | -26.70545 | 36962 ft | 521 kts | 25° |
| 2026-05-04 07:09 | 14.02345 | -26.55549 | 36961 ft | 522 kts | 24° |
| 2026-05-04 07:09 | 14.08667 | -26.51776 | 36965 ft | 523 kts | 24° |
| 2026-05-04 07:10 | 14.14951 | -26.48021 | 36962 ft | 522 kts | 24° |
| 2026-05-04 07:12 | 14.40089 | -26.32978 | 36961 ft | 522 kts | 25° |
| 2026-05-04 07:12 | 14.46365 | -26.29213 | 36967 ft | 523 kts | 25° |
| 2026-05-04 07:13 | 14.52639 | -26.25443 | 36967 ft | 521 kts | 25° |
| 2026-05-04 07:13 | 14.58904 | -26.21681 | 36966 ft | 522 kts | 25° |
| 2026-05-04 07:14 | 14.74621 | -26.12236 | 36965 ft | 522 kts | 25° |
| 2026-05-04 07:15 | 14.80901 | -26.08454 | 36966 ft | 521 kts | 24° |
| 2026-05-04 07:15 | 14.87188 | -26.04670 | 36965 ft | 522 kts | 25° |
| 2026-05-04 07:16 | 14.93441 | -26.00902 | 36964 ft | 522 kts | 25° |
| 2026-05-04 07:16 | 14.99728 | -25.97109 | 36966 ft | 522 kts | 25° |
| 2026-05-04 07:17 | 15.06002 | -25.93322 | 36965 ft | 521 kts | 24° |
| 2026-05-04 07:17 | 15.12283 | -25.89531 | 36958 ft | 522 kts | 25° |
| 2026-05-04 07:18 | 15.18544 | -25.85747 | 36962 ft | 522 kts | 25° |
| 2026-05-04 07:18 | 15.24806 | -25.81960 | 36980 ft | 521 kts | 25° |
| 2026-05-04 07:19 | 15.31111 | -25.78145 | 36973 ft | 522 kts | 25° |
| 2026-05-04 07:19 | 15.37389 | -25.74342 | 36972 ft | 522 kts | 25° |
| 2026-05-04 07:20 | 15.43642 | -25.70556 | 36977 ft | 521 kts | 25° |
| 2026-05-04 07:20 | 15.49920 | -25.66747 | 36974 ft | 522 kts | 25° |
| 2026-05-04 07:22 | 15.74922 | -25.51557 | 36960 ft | 519 kts | 25° |
| 2026-05-04 07:23 | 15.81188 | -25.47743 | 36963 ft | 520 kts | 25° |
| 2026-05-04 07:23 | 15.87436 | -25.43936 | 36964 ft | 520 kts | 25° |
| 2026-05-04 07:24 | 15.93689 | -25.40126 | 36965 ft | 521 kts | 25° |
| 2026-05-04 07:24 | 15.99940 | -25.36312 | 36960 ft | 520 kts | 25° |
| 2026-05-04 07:26 | 16.24951 | -25.21028 | 36964 ft | 523 kts | 25° |
| 2026-05-04 07:27 | 16.31212 | -25.17193 | 36965 ft | 522 kts | 25° |
| 2026-05-04 07:27 | 16.37445 | -25.13376 | 36966 ft | 523 kts | 25° |
| 2026-05-04 07:28 | 16.43730 | -25.09525 | 36968 ft | 523 kts | 25° |
| 2026-05-04 07:28 | 16.50024 | -25.05659 | 36968 ft | 523 kts | 25° |
| 2026-05-04 07:29 | 16.56294 | -25.01811 | 36970 ft | 523 kts | 25° |
| 2026-05-04 07:29 | 16.62559 | -24.97961 | 36973 ft | 524 kts | 25° |
| 2026-05-04 07:30 | 16.68827 | -24.94107 | 36976 ft | 524 kts | 25° |
| 2026-05-04 07:30 | 16.75122 | -24.90230 | 36978 ft | 523 kts | 25° |
| 2026-05-04 07:31 | 16.81424 | -24.86350 | 36982 ft | 523 kts | 26° |
| 2026-05-04 07:33 | 17.06524 | -24.70862 | 36983 ft | 524 kts | 25° |
| 2026-05-04 07:33 | 17.12778 | -24.66994 | 36985 ft | 523 kts | 26° |
| 2026-05-04 07:34 | 17.19089 | -24.63089 | 36985 ft | 524 kts | 26° |
| 2026-05-04 07:34 | 17.25367 | -24.59202 | 36987 ft | 523 kts | 25° |
| 2026-05-04 07:35 | 17.31583 | -24.55343 | 36983 ft | 522 kts | 25° |
| 2026-05-04 07:35 | 17.37882 | -24.51440 | 36991 ft | 523 kts | 26° |
| 2026-05-04 07:36 | 17.44141 | -24.47558 | 36985 ft | 523 kts | 25° |
| 2026-05-04 07:38 | 17.69179 | -24.31982 | 36988 ft | 523 kts | 26° |
| 2026-05-04 07:38 | 17.75440 | -24.28079 | 36990 ft | 523 kts | 26° |
| 2026-05-04 07:39 | 17.81698 | -24.24172 | 36988 ft | 524 kts | 26° |
| 2026-05-04 07:39 | 17.87945 | -24.20269 | 36989 ft | 524 kts | 26° |
| 2026-05-04 07:40 | 17.94196 | -24.16363 | 36986 ft | 523 kts | 26° |
| 2026-05-04 07:40 | 18.00444 | -24.12456 | 36987 ft | 523 kts | 26° |
| 2026-05-04 07:41 | 18.06721 | -24.08528 | 36985 ft | 522 kts | 26° |
| 2026-05-04 07:41 | 18.12946 | -24.04630 | 36985 ft | 522 kts | 26° |
| 2026-05-04 07:42 | 18.19202 | -24.00708 | 36987 ft | 523 kts | 26° |
| 2026-05-04 07:42 | 18.25437 | -23.96796 | 36987 ft | 523 kts | 26° |
| 2026-05-04 07:43 | 18.31708 | -23.92858 | 36987 ft | 523 kts | 26° |
| 2026-05-04 07:43 | 18.37933 | -23.88946 | 36989 ft | 523 kts | 26° |
| 2026-05-04 07:44 | 18.44190 | -23.85010 | 36991 ft | 522 kts | 26° |
| 2026-05-04 07:44 | 18.50433 | -23.81080 | 36991 ft | 522 kts | 26° |
| 2026-05-04 07:45 | 18.56658 | -23.77156 | 36995 ft | 521 kts | 27° |
| 2026-05-04 07:45 | 18.62893 | -23.73223 | 36994 ft | 521 kts | 26° |
| 2026-05-04 07:46 | 18.69091 | -23.69312 | 36995 ft | 521 kts | 27° |
| 2026-05-04 07:46 | 18.75336 | -23.65367 | 36995 ft | 521 kts | 27° |
| 2026-05-04 07:47 | 18.81548 | -23.61439 | 36999 ft | 521 kts | 26° |
| 2026-05-04 07:49 | 19.06373 | -23.45711 | 37006 ft | 521 kts | 27° |
| 2026-05-04 07:49 | 19.12618 | -23.41743 | 37002 ft | 521 kts | 27° |
| 2026-05-04 07:50 | 19.18785 | -23.37822 | 37004 ft | 520 kts | 27° |
| 2026-05-04 07:50 | 19.25000 | -23.33869 | 37002 ft | 520 kts | 27° |
| 2026-05-04 07:51 | 19.31196 | -23.29927 | 37004 ft | 521 kts | 27° |
| 2026-05-04 07:51 | 19.37420 | -23.25960 | 37006 ft | 521 kts | 27° |
| 2026-05-04 07:52 | 19.43635 | -23.21994 | 37006 ft | 522 kts | 27° |
| 2026-05-04 07:52 | 19.49849 | -23.18026 | 37005 ft | 522 kts | 27° |
| 2026-05-04 07:54 | 19.74720 | -23.02114 | 37004 ft | 521 kts | 27° |
| 2026-05-04 07:55 | 19.80926 | -22.98135 | 37002 ft | 522 kts | 27° |
| 2026-05-04 07:55 | 19.87121 | -22.94157 | 37002 ft | 521 kts | 27° |
| 2026-05-04 07:56 | 19.93342 | -22.90160 | 37002 ft | 521 kts | 27° |
| 2026-05-04 07:56 | 19.99544 | -22.86170 | 37003 ft | 521 kts | 27° |
| 2026-05-04 07:57 | 20.05770 | -22.82162 | 37006 ft | 521 kts | 27° |
| 2026-05-04 07:57 | 20.11972 | -22.78165 | 37004 ft | 521 kts | 27° |
| 2026-05-04 07:58 | 20.18157 | -22.74176 | 37006 ft | 521 kts | 27° |
| 2026-05-04 07:58 | 20.24334 | -22.70189 | 37006 ft | 521 kts | 27° |
| 2026-05-04 07:59 | 20.30527 | -22.66185 | 37006 ft | 520 kts | 27° |
| 2026-05-04 07:59 | 20.36710 | -22.62187 | 37012 ft | 520 kts | 27° |
| 2026-05-04 08:00 | 20.42931 | -22.58161 | 37008 ft | 521 kts | 27° |
| 2026-05-04 08:02 | 20.67654 | -22.42115 | 37004 ft | 519 kts | 27° |
| 2026-05-04 08:02 | 20.73809 | -22.38112 | 37003 ft | 520 kts | 27° |
| 2026-05-04 08:03 | 20.79971 | -22.34099 | 37003 ft | 519 kts | 28° |
| 2026-05-04 08:03 | 20.86165 | -22.30062 | 37005 ft | 519 kts | 27° |
| 2026-05-04 08:04 | 20.92296 | -22.26061 | 37005 ft | 518 kts | 28° |
| 2026-05-04 08:04 | 20.98461 | -22.22038 | 37007 ft | 519 kts | 28° |
| 2026-05-04 08:05 | 21.04630 | -22.18003 | 37008 ft | 519 kts | 27° |
| 2026-05-04 08:05 | 21.10782 | -22.13978 | 37008 ft | 519 kts | 27° |
| 2026-05-04 08:06 | 21.16958 | -22.09932 | 37008 ft | 520 kts | 27° |
| 2026-05-04 08:06 | 21.23133 | -22.05885 | 37009 ft | 519 kts | 27° |
| 2026-05-04 08:08 | 21.47737 | -21.89710 | 37030 ft | 518 kts | 27° |
| 2026-05-04 08:11 | 21.75404 | -21.71448 | 37037 ft | 518 kts | 28° |
| 2026-05-04 08:11 | 21.84599 | -21.65359 | 37038 ft | 517 kts | 27° |
| 2026-05-04 08:12 | 21.90713 | -21.61306 | 37037 ft | 517 kts | 27° |
| 2026-05-04 08:12 | 21.96844 | -21.57237 | 37038 ft | 517 kts | 28° |
| 2026-05-04 08:13 | 22.02951 | -21.53181 | 37042 ft | 517 kts | 27° |
| 2026-05-04 08:13 | 22.09107 | -21.49086 | 37033 ft | 517 kts | 28° |
| 2026-05-04 08:14 | 22.15204 | -21.45027 | 37031 ft | 518 kts | 27° |
| 2026-05-04 08:16 | 22.39710 | -21.28672 | 37031 ft | 517 kts | 28° |
| 2026-05-04 08:16 | 22.45842 | -21.24569 | 37033 ft | 518 kts | 28° |
| 2026-05-04 08:17 | 22.51983 | -21.20456 | 37035 ft | 518 kts | 28° |
| 2026-05-04 08:17 | 22.58108 | -21.16348 | 37037 ft | 518 kts | 28° |
| 2026-05-04 08:19 | 22.82640 | -20.99854 | 37037 ft | 518 kts | 28° |
| 2026-05-04 08:20 | 22.88741 | -20.95741 | 37041 ft | 518 kts | 27° |
| 2026-05-04 08:20 | 22.94842 | -20.91626 | 37039 ft | 518 kts | 27° |
| 2026-05-04 08:21 | 23.01002 | -20.87469 | 37038 ft | 519 kts | 28° |
| 2026-05-04 08:21 | 23.07126 | -20.83326 | 37042 ft | 520 kts | 27° |
| 2026-05-04 08:22 | 23.13240 | -20.79181 | 37046 ft | 520 kts | 27° |
| 2026-05-04 08:24 | 23.37767 | -20.62526 | 37041 ft | 520 kts | 28° |
| 2026-05-04 08:24 | 23.43912 | -20.58342 | 37038 ft | 520 kts | 27° |
| 2026-05-04 08:25 | 23.50036 | -20.54167 | 37049 ft | 520 kts | 27° |
| 2026-05-04 08:25 | 23.56198 | -20.49964 | 37035 ft | 521 kts | 28° |
| 2026-05-04 08:27 | 23.80764 | -20.33158 | 37039 ft | 522 kts | 28° |
| 2026-05-04 08:28 | 23.86936 | -20.28925 | 37043 ft | 522 kts | 28° |
| 2026-05-04 08:28 | 23.93082 | -20.24702 | 37046 ft | 523 kts | 28° |
| 2026-05-04 08:29 | 23.99233 | -20.20470 | 37044 ft | 523 kts | 28° |
| 2026-05-04 08:31 | 24.23898 | -20.03459 | 37046 ft | 523 kts | 28° |
| 2026-05-04 08:33 | 24.48540 | -19.86384 | 37055 ft | 524 kts | 28° |
| 2026-05-04 08:35 | 24.73166 | -19.69246 | 37056 ft | 524 kts | 27° |
| 2026-05-04 08:35 | 24.79355 | -19.64927 | 37060 ft | 525 kts | 28° |
| 2026-05-04 08:37 | 25.00543 | -19.49087 | 37063 ft | 532 kts | 38° |
| 2026-05-04 08:38 | 25.05776 | -19.43284 | 37064 ft | 535 kts | 46° |
| 2026-05-04 08:38 | 25.10628 | -19.37082 | 37063 ft | 536 kts | 47° |
| 2026-05-04 08:40 | 25.30136 | -19.12152 | 37065 ft | 537 kts | 47° |
| 2026-05-04 08:41 | 25.35018 | -19.05919 | 37170 ft | 541 kts | 47° |
| 2026-05-04 08:41 | 25.37472 | -19.02783 | 37444 ft | 541 kts | 47° |
| 2026-05-04 08:41 | 25.39921 | -18.99649 | 37761 ft | 540 kts | 47° |
| 2026-05-04 08:41 | 25.42372 | -18.96509 | 38063 ft | 539 kts | 47° |
| 2026-05-04 08:42 | 25.44801 | -18.93396 | 38343 ft | 538 kts | 46° |
| 2026-05-04 08:42 | 25.47251 | -18.90258 | 38583 ft | 538 kts | 47° |
| 2026-05-04 08:42 | 25.49696 | -18.87121 | 38763 ft | 539 kts | 46° |
| 2026-05-04 08:42 | 25.52138 | -18.83985 | 38956 ft | 539 kts | 47° |
| 2026-05-04 08:43 | 25.54592 | -18.80834 | 39062 ft | 540 kts | 46° |
| 2026-05-04 08:43 | 25.59489 | -18.74536 | 39062 ft | 540 kts | 46° |
| 2026-05-04 08:44 | 25.64387 | -18.68231 | 39062 ft | 540 kts | 46° |
| 2026-05-04 08:46 | 25.83934 | -18.42954 | 39063 ft | 541 kts | 46° |
| 2026-05-04 08:46 | 25.88810 | -18.36624 | 39064 ft | 541 kts | 46° |
| 2026-05-04 08:47 | 25.93700 | -18.30272 | 39062 ft | 543 kts | 47° |
| 2026-05-04 08:47 | 25.98619 | -18.23873 | 39063 ft | 543 kts | 47° |
| 2026-05-04 08:48 | 26.03522 | -18.17482 | 39062 ft | 543 kts | 47° |
| 2026-05-04 08:48 | 26.08404 | -18.11110 | 39063 ft | 543 kts | 47° |
| 2026-05-04 08:49 | 26.13279 | -18.04740 | 39061 ft | 543 kts | 46° |
| 2026-05-04 08:50 | 26.30370 | -17.82325 | 39063 ft | 543 kts | 47° |
| 2026-05-04 08:51 | 26.35241 | -17.75918 | 39060 ft | 542 kts | 47° |
| 2026-05-04 08:51 | 26.40123 | -17.69491 | 39068 ft | 542 kts | 47° |
| 2026-05-04 08:52 | 26.44970 | -17.63104 | 39061 ft | 542 kts | 47° |
| 2026-05-04 08:52 | 26.49830 | -17.56685 | 39069 ft | 542 kts | 46° |
| 2026-05-04 08:54 | 26.69208 | -17.31000 | 39077 ft | 541 kts | 46° |
| 2026-05-04 08:55 | 26.74021 | -17.24604 | 39072 ft | 541 kts | 47° |
| 2026-05-04 08:55 | 26.78886 | -17.18118 | 39079 ft | 542 kts | 47° |
| 2026-05-04 09:01 | 27.29610 | -16.49954 | 39077 ft | 543 kts | 47° |
| 2026-05-04 09:01 | 27.34431 | -16.43427 | 39073 ft | 543 kts | 47° |
| 2026-05-04 09:02 | 27.39252 | -16.36878 | 39074 ft | 543 kts | 47° |
| 2026-05-04 09:02 | 27.44041 | -16.30368 | 39074 ft | 543 kts | 47° |
| 2026-05-04 09:03 | 27.48858 | -16.23813 | 39076 ft | 544 kts | 47° |
| 2026-05-04 09:03 | 27.53682 | -16.17236 | 39077 ft | 545 kts | 47° |
| 2026-05-04 09:04 | 27.58496 | -16.10661 | 39081 ft | 544 kts | 47° |